UAL917 EDDF-KIAD

Flight info

Callsign UAL917
Flight time 8h 46m
Altitude 38000
Route OBOKA5G/25C OBOKA Z28 DIBIR DCT BUDIP DCT TOPPA DCT GIVEM DCT FINDO DCT ETILO/M083F390 NATB HOIST/N0478F400 N748B QUBIS DCT CBIRD DCT KJOHN DCT ALB HYPER9
Aircraft B772/H-SDE2E3FGHIJ5LORVWXY/LB1D1

Departure

Time 2026-04-12 15:33
Airport Frankfurt Main Airport (EDDF)

Arrival

Time 2026-04-13 00:20
Airport Washington Dulles International Airport (KIAD)
Time Latitude Longitude Altitude Speed Heading
2026-04-12 14:38 50.04639 8.56656 365 ft 0 kts 115°
2026-04-12 15:17 50.04646 8.56633 365 ft 4 kts 116°
2026-04-12 15:18 50.04658 8.56596 368 ft 4 kts 116°
2026-04-12 15:18 50.04669 8.56558 363 ft 4 kts 109°
2026-04-12 15:18 50.04676 8.56518 363 ft 4 kts 96°
2026-04-12 15:18 50.04676 8.56477 360 ft 4 kts 75°
2026-04-12 15:19 50.04668 8.56438 367 ft 4 kts 71°
2026-04-12 15:19 50.04659 8.56399 365 ft 4 kts 70°
2026-04-12 15:19 50.04650 8.56359 366 ft 4 kts 69°
2026-04-12 15:19 50.04640 8.56320 368 ft 4 kts 69°
2026-04-12 15:20 50.04630 8.56281 364 ft 3 kts 69°
2026-04-12 15:20 50.04629 8.56274 368 ft 0 kts 70°
2026-04-12 15:23 50.04634 8.56297 360 ft 7 kts 70°
2026-04-12 15:23 50.04656 8.56401 366 ft 10 kts 83°
2026-04-12 15:23 50.04614 8.56478 368 ft 10 kts 176°
2026-04-12 15:23 50.04547 8.56437 364 ft 10 kts 208°
2026-04-12 15:24 50.04507 8.56346 369 ft 10 kts 250°
2026-04-12 15:24 50.04482 8.56241 367 ft 10 kts 249°
2026-04-12 15:24 50.04457 8.56136 364 ft 10 kts 250°
2026-04-12 15:24 50.04423 8.56040 365 ft 10 kts 216°
2026-04-12 15:25 50.04353 8.56049 364 ft 10 kts 161°
2026-04-12 15:25 50.04294 8.56108 368 ft 10 kts 114°
2026-04-12 15:25 50.04286 8.56216 362 ft 9 kts 129°
2026-04-12 15:25 50.04226 8.56249 365 ft 9 kts 160°
2026-04-12 15:26 50.04166 8.56282 362 ft 9 kts 160°
2026-04-12 15:26 50.04148 8.56363 366 ft 9 kts 74°
2026-04-12 15:26 50.04169 8.56455 367 ft 9 kts 70°
2026-04-12 15:26 50.04191 8.56546 365 ft 10 kts 70°
2026-04-12 15:27 50.04217 8.56657 368 ft 12 kts 70°
2026-04-12 15:27 50.04246 8.56777 370 ft 12 kts 69°
2026-04-12 15:27 50.04277 8.56906 365 ft 13 kts 69°
2026-04-12 15:27 50.04310 8.57040 368 ft 13 kts 69°
2026-04-12 15:28 50.04342 8.57175 371 ft 13 kts 70°
2026-04-12 15:28 50.04374 8.57309 370 ft 13 kts 70°
2026-04-12 15:28 50.04405 8.57443 369 ft 13 kts 70°
2026-04-12 15:28 50.04437 8.57578 371 ft 13 kts 70°
2026-04-12 15:29 50.04469 8.57710 370 ft 13 kts 70°
2026-04-12 15:29 50.04501 8.57844 375 ft 13 kts 69°
2026-04-12 15:29 50.04533 8.57978 370 ft 13 kts 69°
2026-04-12 15:29 50.04566 8.58112 369 ft 13 kts 69°
2026-04-12 15:30 50.04598 8.58246 374 ft 13 kts 69°
2026-04-12 15:30 50.04629 8.58380 378 ft 13 kts 70°
2026-04-12 15:30 50.04657 8.58511 375 ft 11 kts 86°
2026-04-12 15:30 50.04611 8.58579 375 ft 10 kts 159°
2026-04-12 15:31 50.04548 8.58617 378 ft 10 kts 159°
2026-04-12 15:31 50.04491 8.58604 380 ft 8 kts 238°
2026-04-12 15:31 50.04483 8.58571 375 ft 0 kts 249°
2026-04-12 15:32 50.04463 8.58488 377 ft 23 kts 249°
2026-04-12 15:32 50.04337 8.57962 371 ft 85 kts 249°
2026-04-12 15:32 50.04055 8.56781 364 ft 146 kts 249°
2026-04-12 15:33 50.03656 8.55115 687 ft 168 kts 249°
2026-04-12 15:33 50.03243 8.53413 1413 ft 173 kts 249°
2026-04-12 15:33 50.02807 8.51636 1890 ft 179 kts 250°
2026-04-12 15:33 50.02633 8.49666 2016 ft 193 kts 277°
2026-04-12 15:34 50.02836 8.47535 2184 ft 212 kts 277°
2026-04-12 15:34 50.03001 8.45194 2559 ft 222 kts 277°
2026-04-12 15:34 50.03056 8.43565 2773 ft 230 kts 265°
2026-04-12 15:34 50.02566 8.40181 3045 ft 253 kts 258°
2026-04-12 15:35 50.02207 8.37460 3648 ft 260 kts 259°
2026-04-12 15:35 50.01867 8.34663 4249 ft 266 kts 259°
2026-04-12 15:35 50.01526 8.31822 4951 ft 269 kts 259°
2026-04-12 15:35 50.01235 8.28948 5544 ft 269 kts 269°
2026-04-12 15:36 50.01671 8.26123 5976 ft 272 kts 297°
2026-04-12 15:36 50.02518 8.23506 6482 ft 278 kts 296°
2026-04-12 15:36 50.03332 8.20765 7146 ft 280 kts 294°
2026-04-12 15:36 50.04133 8.18009 7860 ft 280 kts 294°
2026-04-12 15:37 50.04938 8.15236 8572 ft 281 kts 293°
2026-04-12 15:37 50.05750 8.12458 9251 ft 282 kts 295°
2026-04-12 15:37 50.06780 8.09886 9841 ft 287 kts 305°
2026-04-12 15:37 50.08045 8.07442 10379 ft 295 kts 308°
2026-04-12 15:38 50.09412 8.04905 10541 ft 317 kts 308°
2026-04-12 15:38 50.10869 8.02189 10721 ft 338 kts 308°
2026-04-12 15:38 50.12403 7.99285 11073 ft 353 kts 307°
2026-04-12 15:38 50.13976 7.96278 11668 ft 362 kts 307°
2026-04-12 15:39 50.15560 7.93221 12505 ft 364 kts 307°
2026-04-12 15:39 50.17152 7.90127 13477 ft 365 kts 306°
2026-04-12 15:39 50.18751 7.87005 14227 ft 370 kts 306°
2026-04-12 15:39 50.20368 7.83840 14892 ft 376 kts 305°
2026-04-12 15:40 50.21986 7.80673 15607 ft 380 kts 304°
2026-04-12 15:40 50.23640 7.77430 16304 ft 384 kts 304°
2026-04-12 15:40 50.24783 7.75239 16705 ft 385 kts 307°
2026-04-12 15:40 50.27749 7.71962 17284 ft 406 kts 333°
2026-04-12 15:41 50.30423 7.70350 17655 ft 417 kts 334°
2026-04-12 15:41 50.33114 7.68602 18277 ft 421 kts 332°
2026-04-12 15:41 50.35806 7.66764 18909 ft 424 kts 331°
2026-04-12 15:41 50.38514 7.64889 19501 ft 427 kts 331°
2026-04-12 15:42 50.41204 7.63030 20076 ft 431 kts 330°
2026-04-12 15:42 50.43959 7.61132 20633 ft 435 kts 330°
2026-04-12 15:42 50.46744 7.59214 21168 ft 439 kts 330°
2026-04-12 15:43 50.52382 7.55326 22258 ft 447 kts 329°
2026-04-12 15:43 50.55244 7.53346 22819 ft 451 kts 329°
2026-04-12 15:43 50.58023 7.51115 23345 ft 447 kts 321°
2026-04-12 15:43 50.60639 7.48448 23685 ft 451 kts 318°
2026-04-12 15:44 50.63191 7.45640 24017 ft 457 kts 317°
2026-04-12 15:44 50.65828 7.42762 24399 ft 463 kts 318°
2026-04-12 15:44 50.68512 7.39936 24910 ft 465 kts 319°
2026-04-12 15:44 50.71224 7.37149 25428 ft 466 kts 319°
2026-04-12 15:45 50.73917 7.34323 25825 ft 462 kts 314°
2026-04-12 15:45 50.76163 7.30836 26086 ft 444 kts 297°
2026-04-12 15:45 50.77876 7.26781 26394 ft 445 kts 294°
2026-04-12 15:45 50.79572 7.22672 26790 ft 448 kts 295°
2026-04-12 15:46 50.81315 7.18579 27276 ft 449 kts 295°
2026-04-12 15:46 50.84879 7.10486 28114 ft 454 kts 296°
2026-04-12 15:46 50.86701 7.06393 28470 ft 456 kts 296°
2026-04-12 15:47 50.88529 7.02273 28825 ft 459 kts 296°
2026-04-12 15:47 50.90361 6.98132 29147 ft 461 kts 296°
2026-04-12 15:47 50.92207 6.93967 29468 ft 462 kts 296°
2026-04-12 15:47 50.94060 6.89787 29810 ft 464 kts 296°
2026-04-12 15:48 50.95917 6.85596 30085 ft 465 kts 295°
2026-04-12 15:48 50.97779 6.81382 30290 ft 468 kts 295°
2026-04-12 15:48 50.99627 6.77194 30538 ft 469 kts 295°
2026-04-12 15:48 51.01494 6.72958 30849 ft 468 kts 295°
2026-04-12 15:49 51.03358 6.68724 31222 ft 467 kts 295°
2026-04-12 15:49 51.05213 6.64501 31570 ft 465 kts 295°
2026-04-12 15:49 51.07060 6.60286 31896 ft 465 kts 294°
2026-04-12 15:49 51.08908 6.56062 32169 ft 464 kts 294°
2026-04-12 15:50 51.10745 6.51840 32487 ft 463 kts 294°
2026-04-12 15:50 51.12569 6.47629 32816 ft 462 kts 294°
2026-04-12 15:50 51.14384 6.43429 33133 ft 460 kts 294°
2026-04-12 15:50 51.16197 6.39224 33455 ft 459 kts 294°
2026-04-12 15:51 51.17996 6.35047 33871 ft 456 kts 294°
2026-04-12 15:51 51.19762 6.30945 34190 ft 454 kts 294°
2026-04-12 15:51 51.21548 6.26784 34393 ft 455 kts 294°
2026-04-12 15:51 51.23333 6.22615 34560 ft 456 kts 294°
2026-04-12 15:52 51.25121 6.18439 34782 ft 457 kts 294°
2026-04-12 15:52 51.28711 6.09997 35052 ft 459 kts 294°
2026-04-12 15:52 51.30456 6.05739 35297 ft 457 kts 293°
2026-04-12 15:53 51.32181 6.01477 35514 ft 457 kts 293°
2026-04-12 15:53 51.33912 5.97209 35703 ft 457 kts 293°
2026-04-12 15:53 51.35670 5.92962 35882 ft 461 kts 296°
2026-04-12 15:53 51.37726 5.88938 35957 ft 473 kts 304°
2026-04-12 15:54 51.40097 5.85237 36008 ft 480 kts 309°
2026-04-12 15:54 51.45513 5.78891 36028 ft 489 kts 317°
2026-04-12 15:55 51.51189 5.72864 36015 ft 490 kts 317°
2026-04-12 15:55 51.56853 5.66801 36018 ft 489 kts 316°
2026-04-12 15:56 51.62479 5.60686 36014 ft 488 kts 316°
2026-04-12 15:56 51.68088 5.54537 36047 ft 487 kts 316°
2026-04-12 15:57 51.73694 5.48368 36020 ft 488 kts 316°
2026-04-12 15:57 51.79304 5.42177 36012 ft 488 kts 316°
2026-04-12 15:58 51.84877 5.36014 36007 ft 489 kts 316°
2026-04-12 15:58 51.90494 5.29781 36014 ft 490 kts 315°
2026-04-12 15:59 51.96125 5.23515 36010 ft 492 kts 315°
2026-04-12 15:59 52.01764 5.17220 36002 ft 492 kts 315°
2026-04-12 16:00 52.07407 5.10903 35998 ft 493 kts 315°
2026-04-12 16:00 52.13053 5.04562 35992 ft 493 kts 315°
2026-04-12 16:01 52.18695 4.98206 36026 ft 493 kts 315°
2026-04-12 16:01 52.24305 4.91864 36035 ft 494 kts 315°
2026-04-12 16:02 52.29959 4.85452 36007 ft 495 kts 315°
2026-04-12 16:02 52.35606 4.79030 35983 ft 495 kts 315°
2026-04-12 16:03 52.41248 4.72594 35992 ft 494 kts 315°
2026-04-12 16:03 52.46885 4.66141 35979 ft 494 kts 315°
2026-04-12 16:04 52.52516 4.59675 35987 ft 493 kts 315°
2026-04-12 16:04 52.58092 4.53252 35986 ft 493 kts 315°
2026-04-12 16:05 52.63701 4.46770 35986 ft 492 kts 314°
2026-04-12 16:05 52.68350 4.41381 36011 ft 492 kts 314°
2026-04-12 16:06 52.74880 4.33787 35995 ft 491 kts 314°
2026-04-12 16:06 52.80463 4.27272 35985 ft 491 kts 314°
2026-04-12 16:07 52.86001 4.20791 35984 ft 491 kts 314°
2026-04-12 16:07 52.91565 4.14256 35986 ft 490 kts 314°
2026-04-12 16:08 52.97125 4.07704 35993 ft 491 kts 314°
2026-04-12 16:08 53.02693 4.01121 35985 ft 492 kts 314°
2026-04-12 16:09 53.08268 3.94510 35982 ft 492 kts 314°
2026-04-12 16:09 53.13839 3.87884 35978 ft 492 kts 314°
2026-04-12 16:10 53.19412 3.81232 35987 ft 493 kts 314°
2026-04-12 16:10 53.24943 3.74608 35975 ft 493 kts 314°
2026-04-12 16:11 53.30509 3.67921 35955 ft 493 kts 314°
2026-04-12 16:11 53.36070 3.61219 35955 ft 493 kts 314°
2026-04-12 16:12 53.41552 3.54373 35955 ft 487 kts 309°
2026-04-12 16:12 53.46583 3.46863 35946 ft 483 kts 308°
2026-04-12 16:13 53.51529 3.39313 35488 ft 492 kts 307°
2026-04-12 16:13 53.54038 3.35432 35326 ft 478 kts 306°
2026-04-12 16:13 53.56477 3.31663 35636 ft 476 kts 307°
2026-04-12 16:13 53.58942 3.27929 35750 ft 477 kts 308°
2026-04-12 16:14 53.61427 3.24193 35846 ft 479 kts 308°
2026-04-12 16:14 53.66415 3.16676 35920 ft 484 kts 308°
2026-04-12 16:15 53.71436 3.09048 35969 ft 487 kts 309°
2026-04-12 16:15 53.76477 3.01344 35918 ft 489 kts 309°
2026-04-12 16:16 53.81486 2.93659 35916 ft 489 kts 309°
2026-04-12 16:16 53.86520 2.85911 35904 ft 489 kts 309°
2026-04-12 16:17 53.91543 2.78152 35906 ft 488 kts 309°
2026-04-12 16:17 53.96552 2.70386 35926 ft 487 kts 309°
2026-04-12 16:18 54.01548 2.62612 35955 ft 487 kts 309°
2026-04-12 16:18 54.06513 2.54860 35907 ft 487 kts 309°
2026-04-12 16:19 54.11501 2.47049 35896 ft 487 kts 309°
2026-04-12 16:19 54.16480 2.39225 35892 ft 486 kts 309°
2026-04-12 16:20 54.21446 2.31395 35885 ft 486 kts 309°
2026-04-12 16:20 54.26404 2.23547 35879 ft 486 kts 309°
2026-04-12 16:21 54.31360 2.15678 35875 ft 486 kts 309°
2026-04-12 16:21 54.36314 2.07783 35883 ft 487 kts 309°
2026-04-12 16:22 54.41269 1.99861 35876 ft 487 kts 309°
2026-04-12 16:22 54.46186 1.91974 35863 ft 487 kts 309°
2026-04-12 16:23 54.51134 1.84008 35870 ft 487 kts 309°
2026-04-12 16:23 54.56077 1.76021 35857 ft 487 kts 309°
2026-04-12 16:24 54.61018 1.68012 35855 ft 487 kts 309°
2026-04-12 16:24 54.65953 1.59982 35882 ft 488 kts 309°
2026-04-12 16:25 54.70859 1.51969 35854 ft 489 kts 309°
2026-04-12 16:25 54.75794 1.43887 35857 ft 489 kts 310°
2026-04-12 16:26 54.80732 1.35768 35846 ft 489 kts 310°
2026-04-12 16:26 54.85669 1.27622 35829 ft 490 kts 310°
2026-04-12 16:27 54.90596 1.19464 35829 ft 490 kts 309°
2026-04-12 16:27 54.95521 1.11282 35821 ft 490 kts 309°
2026-04-12 16:28 55.00443 1.03070 35834 ft 490 kts 310°
2026-04-12 16:28 55.05359 0.94842 35823 ft 490 kts 310°
2026-04-12 16:29 55.10274 0.86588 35810 ft 490 kts 309°
2026-04-12 16:29 55.15186 0.78308 35808 ft 490 kts 309°
2026-04-12 16:30 55.20057 0.70067 35801 ft 490 kts 309°
2026-04-12 16:30 55.24950 0.61758 35798 ft 490 kts 309°
2026-04-12 16:31 55.29843 0.53418 35827 ft 491 kts 310°
2026-04-12 16:31 55.34742 0.45038 35802 ft 492 kts 310°
2026-04-12 16:32 55.39638 0.36636 35775 ft 492 kts 310°
2026-04-12 16:32 55.44415 0.28077 35771 ft 487 kts 303°
2026-04-12 16:33 55.48189 0.18419 35764 ft 477 kts 293°
2026-04-12 16:33 55.51022 0.07960 35771 ft 472 kts 288°
2026-04-12 16:34 55.53731 -0.02602 35803 ft 473 kts 289°
2026-04-12 16:34 55.56457 -0.13181 35767 ft 474 kts 289°
2026-04-12 16:35 55.59199 -0.23769 35756 ft 474 kts 289°
2026-04-12 16:35 55.61920 -0.34294 35760 ft 474 kts 289°
2026-04-12 16:36 55.64652 -0.44910 35749 ft 474 kts 289°
2026-04-12 16:36 55.67370 -0.55529 35753 ft 473 kts 289°
2026-04-12 16:37 55.70078 -0.66163 35748 ft 473 kts 289°
2026-04-12 16:37 55.72777 -0.76811 35737 ft 473 kts 288°
2026-04-12 16:38 55.75465 -0.87465 35741 ft 473 kts 288°
2026-04-12 16:38 55.78126 -0.98062 35752 ft 473 kts 288°
2026-04-12 16:39 55.80796 -1.08749 35739 ft 474 kts 288°
2026-04-12 16:39 55.83462 -1.19472 35731 ft 475 kts 289°
2026-04-12 16:40 55.86121 -1.30221 35719 ft 475 kts 288°
2026-04-12 16:40 55.88773 -1.40990 35715 ft 475 kts 288°
2026-04-12 16:41 55.91417 -1.51778 35712 ft 475 kts 288°
2026-04-12 16:41 55.94030 -1.62498 35714 ft 475 kts 288°
2026-04-12 16:42 55.96654 -1.73311 35728 ft 475 kts 288°
2026-04-12 16:42 55.99270 -1.84149 35702 ft 475 kts 288°
2026-04-12 16:43 56.04036 -2.04030 35700 ft 475 kts 288°
2026-04-12 16:44 56.06625 -2.14906 35691 ft 475 kts 288°
2026-04-12 16:44 56.09201 -2.25786 35681 ft 475 kts 288°
2026-04-12 16:45 56.11769 -2.36686 35662 ft 475 kts 288°
2026-04-12 16:45 56.14305 -2.47491 35649 ft 464 kts 288°
2026-04-12 16:46 56.16790 -2.58142 35653 ft 463 kts 288°
2026-04-12 16:46 56.19251 -2.68757 35648 ft 465 kts 288°
2026-04-12 16:47 56.21730 -2.79500 35645 ft 466 kts 288°
2026-04-12 16:47 56.24208 -2.90283 35651 ft 468 kts 288°
2026-04-12 16:48 56.26681 -3.01097 35649 ft 468 kts 288°
2026-04-12 16:48 56.29147 -3.11941 35632 ft 468 kts 288°
2026-04-12 16:49 56.31599 -3.22775 35636 ft 467 kts 288°
2026-04-12 16:49 56.34021 -3.33535 35627 ft 466 kts 288°
2026-04-12 16:50 56.36446 -3.44355 35633 ft 465 kts 288°
2026-04-12 16:50 56.38769 -3.55202 35620 ft 462 kts 286°
2026-04-12 16:51 56.40958 -3.66080 35616 ft 460 kts 286°
2026-04-12 16:51 56.43124 -3.76924 35608 ft 459 kts 286°
2026-04-12 16:52 56.45281 -3.87688 35612 ft 458 kts 286°
2026-04-12 16:52 56.47452 -3.98531 35600 ft 458 kts 286°
2026-04-12 16:53 56.49615 -4.09392 35618 ft 459 kts 286°
2026-04-12 16:53 56.51774 -4.20285 35619 ft 460 kts 286°
2026-04-12 16:54 56.53914 -4.31149 35598 ft 462 kts 286°
2026-04-12 16:54 56.56063 -4.42113 35586 ft 462 kts 286°
2026-04-12 16:55 56.58201 -4.53084 35590 ft 461 kts 285°
2026-04-12 16:55 56.60322 -4.64043 35613 ft 460 kts 286°
2026-04-12 16:56 56.62436 -4.75020 35603 ft 461 kts 286°
2026-04-12 16:56 56.64527 -4.85930 35593 ft 460 kts 284°
2026-04-12 16:57 56.66619 -4.96919 35595 ft 459 kts 285°
2026-04-12 16:57 56.68700 -5.07904 35584 ft 460 kts 284°
2026-04-12 16:58 56.70772 -5.18911 35593 ft 459 kts 286°
2026-04-12 16:58 56.72834 -5.29934 35592 ft 460 kts 286°
2026-04-12 16:59 56.74878 -5.40911 35580 ft 460 kts 286°
2026-04-12 16:59 56.76922 -5.51956 35582 ft 460 kts 285°
2026-04-12 17:00 56.78953 -5.63007 35558 ft 459 kts 286°
2026-04-12 17:00 56.80974 -5.74060 35573 ft 459 kts 285°
2026-04-12 17:01 56.82986 -5.85131 35557 ft 460 kts 284°
2026-04-12 17:01 56.84993 -5.96231 35551 ft 459 kts 284°
2026-04-12 17:02 56.86975 -6.07266 35533 ft 456 kts 285°
2026-04-12 17:02 56.88928 -6.18198 35554 ft 454 kts 284°
2026-04-12 17:03 56.90883 -6.29223 35529 ft 456 kts 285°
2026-04-12 17:03 56.92830 -6.40275 35516 ft 457 kts 285°
2026-04-12 17:04 56.94776 -6.51367 35536 ft 457 kts 283°
2026-04-12 17:04 56.96710 -6.62466 35504 ft 458 kts 284°
2026-04-12 17:05 56.98635 -6.73578 35487 ft 460 kts 285°
2026-04-12 17:05 57.00552 -6.84715 35482 ft 459 kts 284°
2026-04-12 17:06 57.02455 -6.95826 35482 ft 452 kts 283°
2026-04-12 17:06 57.04321 -7.06794 35475 ft 451 kts 285°
2026-04-12 17:07 57.06186 -7.17850 35482 ft 455 kts 284°
2026-04-12 17:07 57.08062 -7.29032 35465 ft 459 kts 283°
2026-04-12 17:08 57.09916 -7.40138 35452 ft 455 kts 284°
2026-04-12 17:08 57.11742 -7.51130 35439 ft 447 kts 284°
2026-04-12 17:09 57.13552 -7.62128 35447 ft 451 kts 284°
2026-04-12 17:09 57.15377 -7.73288 35451 ft 458 kts 285°
2026-04-12 17:10 57.17199 -7.84464 35442 ft 453 kts 284°
2026-04-12 17:10 57.18972 -7.95422 35437 ft 445 kts 283°
2026-04-12 17:11 57.20730 -8.06394 35439 ft 448 kts 284°
2026-04-12 17:11 57.22504 -8.17524 35485 ft 456 kts 284°
2026-04-12 17:11 57.23391 -8.23089 35993 ft 447 kts 284°
2026-04-12 17:12 57.24259 -8.28573 36377 ft 444 kts 284°
2026-04-12 17:12 57.25121 -8.34034 36767 ft 441 kts 283°
2026-04-12 17:12 57.25975 -8.39466 36915 ft 443 kts 284°
2026-04-12 17:12 57.26830 -8.44922 37184 ft 442 kts 284°
2026-04-12 17:13 57.27683 -8.50376 37392 ft 440 kts 284°
2026-04-12 17:13 57.29374 -8.61248 37400 ft 445 kts 284°
2026-04-12 17:14 57.31080 -8.72293 37387 ft 447 kts 284°
2026-04-12 17:14 57.32775 -8.83331 37405 ft 442 kts 283°
2026-04-12 17:15 57.34443 -8.94275 37407 ft 443 kts 283°
2026-04-12 17:15 57.36112 -9.05301 37425 ft 447 kts 284°
2026-04-12 17:16 57.37786 -9.16418 37388 ft 447 kts 284°
2026-04-12 17:16 57.39446 -9.27521 37397 ft 445 kts 283°
2026-04-12 17:17 57.41064 -9.38428 37400 ft 442 kts 284°
2026-04-12 17:17 57.42689 -9.49455 37390 ft 446 kts 284°
2026-04-12 17:18 57.44321 -9.60596 37402 ft 446 kts 283°
2026-04-12 17:18 57.45936 -9.71699 37382 ft 441 kts 283°
2026-04-12 17:19 57.47523 -9.82692 37390 ft 442 kts 283°
2026-04-12 17:19 57.49098 -9.93665 37403 ft 445 kts 284°
2026-04-12 17:20 57.51077 -10.04603 37403 ft 446 kts 292°
2026-04-12 17:20 57.53715 -10.15038 37399 ft 448 kts 294°
2026-04-12 17:21 57.56380 -10.25526 37417 ft 449 kts 293°
2026-04-12 17:21 57.58989 -10.35918 37397 ft 435 kts 293°
2026-04-12 17:22 57.61498 -10.46025 37401 ft 433 kts 293°
2026-04-12 17:22 57.64029 -10.56297 37393 ft 439 kts 293°
2026-04-12 17:23 57.66583 -10.66707 37418 ft 441 kts 292°
2026-04-12 17:23 57.69133 -10.77148 37389 ft 443 kts 293°
2026-04-12 17:24 57.71685 -10.87643 37408 ft 449 kts 293°
2026-04-12 17:24 57.74252 -10.98251 37423 ft 448 kts 293°
2026-04-12 17:25 57.76810 -11.08878 37420 ft 444 kts 293°
2026-04-12 17:25 57.79332 -11.19388 37408 ft 443 kts 293°
2026-04-12 17:26 57.81850 -11.29957 37409 ft 443 kts 292°
2026-04-12 17:26 57.84352 -11.40501 37419 ft 440 kts 292°
2026-04-12 17:27 57.86791 -11.50831 37404 ft 433 kts 292°
2026-04-12 17:27 57.89243 -11.61269 37404 ft 440 kts 293°
2026-04-12 17:28 57.91701 -11.71791 37410 ft 438 kts 293°
2026-04-12 17:28 57.94151 -11.82309 37427 ft 441 kts 293°
2026-04-12 17:29 57.96624 -11.92991 37433 ft 448 kts 293°
2026-04-12 17:29 57.99107 -12.03766 37419 ft 448 kts 292°
2026-04-12 17:30 58.01552 -12.14424 37415 ft 440 kts 292°
2026-04-12 17:30 58.03968 -12.25015 37440 ft 442 kts 292°
2026-04-12 17:31 58.06366 -12.35593 37428 ft 437 kts 292°
2026-04-12 17:31 58.08752 -12.46157 37441 ft 437 kts 292°
2026-04-12 17:32 58.11143 -12.56792 37422 ft 442 kts 292°
2026-04-12 17:32 58.13532 -12.67487 37421 ft 442 kts 292°
2026-04-12 17:33 58.15910 -12.78175 37423 ft 446 kts 292°
2026-04-12 17:33 58.18320 -12.89068 37421 ft 451 kts 292°
2026-04-12 17:34 58.20719 -12.99968 37442 ft 441 kts 292°
2026-04-12 17:34 58.23071 -13.10699 37440 ft 441 kts 292°
2026-04-12 17:35 58.25410 -13.21442 37444 ft 437 kts 292°
2026-04-12 17:35 58.27704 -13.32027 37430 ft 432 kts 292°
2026-04-12 17:36 58.29980 -13.42575 37435 ft 438 kts 292°
2026-04-12 17:36 58.32284 -13.53326 37466 ft 440 kts 291°
2026-04-12 17:37 58.34600 -13.64169 37456 ft 446 kts 291°
2026-04-12 17:37 58.36930 -13.75144 37443 ft 448 kts 291°
2026-04-12 17:38 58.39257 -13.86168 37451 ft 446 kts 291°
2026-04-12 17:38 58.41546 -13.97065 37451 ft 446 kts 291°
2026-04-12 17:39 58.43841 -14.08054 37461 ft 445 kts 291°
2026-04-12 17:39 58.46120 -14.19023 37450 ft 444 kts 291°
2026-04-12 17:40 58.48389 -14.30003 37450 ft 445 kts 291°
2026-04-12 17:40 58.50650 -14.41004 37452 ft 445 kts 291°
2026-04-12 17:41 58.52899 -14.52007 37451 ft 449 kts 291°
2026-04-12 17:41 58.55168 -14.63173 37456 ft 450 kts 291°
2026-04-12 17:42 58.57431 -14.74361 37459 ft 451 kts 291°
2026-04-12 17:42 58.59681 -14.85555 37455 ft 450 kts 291°
2026-04-12 17:43 58.63028 -15.02323 37459 ft 448 kts 291°
2026-04-12 17:43 58.65242 -15.13495 37461 ft 447 kts 291°
2026-04-12 17:44 58.68526 -15.30180 37462 ft 447 kts 291°
2026-04-12 17:45 58.70712 -15.41366 37474 ft 447 kts 290°
2026-04-12 17:45 58.72893 -15.52587 37462 ft 448 kts 290°
2026-04-12 17:46 58.75064 -15.63825 37473 ft 448 kts 290°
2026-04-12 17:46 58.77227 -15.75084 37463 ft 448 kts 290°
2026-04-12 17:47 58.79382 -15.86366 37477 ft 448 kts 290°
2026-04-12 17:47 58.81529 -15.97675 37474 ft 449 kts 290°
2026-04-12 17:48 58.83654 -16.08930 37462 ft 449 kts 290°
2026-04-12 17:48 58.85780 -16.20257 37466 ft 449 kts 290°
2026-04-12 17:49 58.87894 -16.31591 37481 ft 448 kts 290°
2026-04-12 17:49 58.89996 -16.42924 37467 ft 448 kts 290°
2026-04-12 17:50 58.92087 -16.54267 37487 ft 448 kts 290°
2026-04-12 17:50 58.94171 -16.65633 37473 ft 449 kts 290°
2026-04-12 17:51 58.96247 -16.77033 37468 ft 449 kts 290°
2026-04-12 17:51 58.98312 -16.88439 37470 ft 448 kts 290°
2026-04-12 17:52 59.00352 -16.99771 37475 ft 448 kts 289°
2026-04-12 17:52 59.02392 -17.11174 37496 ft 447 kts 289°
2026-04-12 17:53 59.04422 -17.22591 37483 ft 447 kts 289°
2026-04-12 17:53 59.06443 -17.34029 37474 ft 448 kts 289°
2026-04-12 17:54 59.08457 -17.45494 37491 ft 448 kts 289°
2026-04-12 17:54 59.10462 -17.56982 37470 ft 448 kts 289°
2026-04-12 17:55 59.12457 -17.68487 37477 ft 449 kts 289°
2026-04-12 17:55 59.14429 -17.79928 37490 ft 449 kts 289°
2026-04-12 17:56 59.16403 -17.91450 37487 ft 449 kts 289°
2026-04-12 17:56 59.18368 -18.02998 37484 ft 449 kts 289°
2026-04-12 17:57 59.20323 -18.14558 37485 ft 449 kts 289°
2026-04-12 17:57 59.22269 -18.26139 37477 ft 449 kts 289°
2026-04-12 17:58 59.24193 -18.37658 37477 ft 449 kts 289°
2026-04-12 17:58 59.26118 -18.49260 37477 ft 449 kts 289°
2026-04-12 17:59 59.28031 -18.60873 37483 ft 449 kts 288°
2026-04-12 17:59 59.29934 -18.72496 37473 ft 449 kts 288°
2026-04-12 18:00 59.31827 -18.84132 37473 ft 448 kts 288°
2026-04-12 18:00 59.33708 -18.95771 37482 ft 448 kts 288°
2026-04-12 18:01 59.35566 -19.07342 37471 ft 448 kts 288°
2026-04-12 18:01 59.37425 -19.19001 37471 ft 448 kts 288°
2026-04-12 18:02 59.39275 -19.30680 37482 ft 448 kts 288°
2026-04-12 18:02 59.41113 -19.42364 37480 ft 448 kts 288°
2026-04-12 18:03 59.42942 -19.54069 37482 ft 448 kts 288°
2026-04-12 18:03 59.44762 -19.65795 37483 ft 448 kts 288°
2026-04-12 18:04 59.46570 -19.77525 37484 ft 448 kts 288°
2026-04-12 18:04 59.48358 -19.89190 37469 ft 448 kts 288°
2026-04-12 18:05 59.50092 -20.00960 37474 ft 448 kts 284°
2026-04-12 18:05 59.51207 -20.13018 37481 ft 448 kts 281°
2026-04-12 18:06 59.52236 -20.25129 37479 ft 448 kts 281°
2026-04-12 18:06 59.53268 -20.37237 37473 ft 448 kts 281°
2026-04-12 18:07 59.54295 -20.49266 37478 ft 448 kts 281°
2026-04-12 18:07 59.55324 -20.61399 37480 ft 448 kts 281°
2026-04-12 18:08 59.56342 -20.73531 37489 ft 449 kts 281°
2026-04-12 18:08 59.57349 -20.85676 37486 ft 449 kts 281°
2026-04-12 18:09 59.58343 -20.97824 37483 ft 449 kts 281°
2026-04-12 18:09 59.59328 -21.09992 37490 ft 449 kts 281°
2026-04-12 18:10 59.60294 -21.22086 37493 ft 449 kts 280°
2026-04-12 18:10 59.61256 -21.34268 37478 ft 450 kts 280°
2026-04-12 18:11 59.62207 -21.46468 37491 ft 449 kts 280°
2026-04-12 18:11 59.63147 -21.58671 37498 ft 449 kts 280°
2026-04-12 18:12 59.64075 -21.70876 37507 ft 449 kts 280°
2026-04-12 18:12 59.64993 -21.83097 37500 ft 449 kts 280°
2026-04-12 18:13 59.65893 -21.95237 37512 ft 449 kts 280°
2026-04-12 18:13 59.66787 -22.07464 37513 ft 449 kts 280°
2026-04-12 18:14 59.67521 -22.17632 37503 ft 448 kts 280°
2026-04-12 18:14 59.68392 -22.29832 37518 ft 448 kts 280°
2026-04-12 18:15 59.69252 -22.42047 37517 ft 447 kts 279°
2026-04-12 18:15 59.70099 -22.54246 37535 ft 447 kts 279°
2026-04-12 18:16 59.70934 -22.66446 37539 ft 447 kts 279°
2026-04-12 18:16 59.71758 -22.78645 37531 ft 447 kts 279°
2026-04-12 18:17 59.72564 -22.90759 37536 ft 446 kts 279°
2026-04-12 18:17 59.73362 -23.02930 37533 ft 445 kts 279°
2026-04-12 18:18 59.74149 -23.15096 37554 ft 445 kts 279°
2026-04-12 18:18 59.74924 -23.27257 37551 ft 444 kts 279°
2026-04-12 18:19 59.75686 -23.39411 37549 ft 444 kts 279°
2026-04-12 18:19 59.76437 -23.51560 37562 ft 444 kts 279°
2026-04-12 18:20 59.77171 -23.63625 37544 ft 443 kts 278°
2026-04-12 18:20 59.77898 -23.75769 37576 ft 443 kts 278°
2026-04-12 18:21 59.78614 -23.87909 37571 ft 443 kts 278°
2026-04-12 18:21 59.79319 -24.00065 37572 ft 443 kts 278°
2026-04-12 18:22 59.80013 -24.12230 37585 ft 443 kts 278°
2026-04-12 18:22 59.80696 -24.24397 37582 ft 443 kts 278°
2026-04-12 18:23 59.81368 -24.36583 37581 ft 444 kts 278°
2026-04-12 18:23 59.82024 -24.48674 37586 ft 443 kts 278°
2026-04-12 18:24 59.82671 -24.60832 37592 ft 442 kts 278°
2026-04-12 18:24 59.83308 -24.73003 37606 ft 442 kts 278°
2026-04-12 18:25 59.83933 -24.85163 37604 ft 442 kts 277°
2026-04-12 18:25 59.84544 -24.97270 37621 ft 442 kts 277°
2026-04-12 18:26 59.85147 -25.09447 37623 ft 443 kts 277°
2026-04-12 18:26 59.85739 -25.21636 37616 ft 442 kts 277°
2026-04-12 18:27 59.86319 -25.33812 37631 ft 442 kts 277°
2026-04-12 18:27 59.86888 -25.46000 37632 ft 442 kts 277°
2026-04-12 18:28 59.87447 -25.58210 37637 ft 443 kts 277°
2026-04-12 18:28 59.87994 -25.70410 37645 ft 443 kts 277°
2026-04-12 18:29 59.88527 -25.82547 37640 ft 443 kts 277°
2026-04-12 18:29 59.89051 -25.94762 37647 ft 442 kts 276°
2026-04-12 18:30 59.89564 -26.06966 37655 ft 442 kts 276°
2026-04-12 18:30 59.90064 -26.19160 37663 ft 441 kts 276°
2026-04-12 18:31 59.90554 -26.31350 37681 ft 442 kts 276°
2026-04-12 18:31 59.91029 -26.43471 37675 ft 442 kts 276°
2026-04-12 18:32 59.91496 -26.55686 37690 ft 442 kts 276°
2026-04-12 18:32 59.91953 -26.67913 37662 ft 442 kts 276°
2026-04-12 18:33 59.92397 -26.80125 37690 ft 441 kts 276°
2026-04-12 18:33 59.92830 -26.92317 37711 ft 441 kts 275°
2026-04-12 18:34 59.93248 -27.04439 37708 ft 441 kts 275°
2026-04-12 18:34 59.93658 -27.16636 37719 ft 441 kts 275°
2026-04-12 18:35 59.94057 -27.28827 37727 ft 440 kts 275°
2026-04-12 18:35 59.94444 -27.41016 37719 ft 440 kts 275°
2026-04-12 18:36 59.94820 -27.53206 37735 ft 440 kts 275°
2026-04-12 18:36 59.95183 -27.65383 37736 ft 440 kts 275°
2026-04-12 18:37 59.95534 -27.77475 37744 ft 440 kts 275°
2026-04-12 18:37 59.95875 -27.89664 37744 ft 440 kts 275°
2026-04-12 18:38 59.96206 -28.01848 37744 ft 440 kts 274°
2026-04-12 18:38 59.96525 -28.14037 37758 ft 440 kts 274°
2026-04-12 18:39 59.96833 -28.26237 37758 ft 440 kts 274°
2026-04-12 18:39 59.97130 -28.38429 37772 ft 440 kts 274°
2026-04-12 18:40 59.97414 -28.50559 37769 ft 440 kts 274°
2026-04-12 18:40 59.97689 -28.62768 37770 ft 440 kts 274°
2026-04-12 18:41 59.97952 -28.74980 37805 ft 440 kts 274°
2026-04-12 18:41 59.98205 -28.87209 37791 ft 441 kts 274°
2026-04-12 18:42 59.98446 -28.99452 37782 ft 441 kts 274°
2026-04-12 18:42 59.98676 -29.11698 37796 ft 441 kts 273°
2026-04-12 18:43 59.99099 -29.36064 37817 ft 440 kts 273°
2026-04-12 18:44 59.99295 -29.48290 37818 ft 440 kts 273°
2026-04-12 18:44 59.99480 -29.60516 37822 ft 440 kts 273°
2026-04-12 18:45 59.99653 -29.72742 37832 ft 440 kts 273°
2026-04-12 18:45 59.99817 -29.84954 37826 ft 439 kts 273°
2026-04-12 18:46 59.99961 -29.97142 37841 ft 438 kts 271°
2026-04-12 18:46 59.99498 -30.09210 37845 ft 440 kts 264°
2026-04-12 18:47 59.98724 -30.21343 37855 ft 440 kts 264°
2026-04-12 18:47 59.97955 -30.33469 37856 ft 440 kts 265°
2026-04-12 18:48 59.97188 -30.45596 37858 ft 440 kts 264°
2026-04-12 18:48 59.96416 -30.57719 37863 ft 440 kts 264°
2026-04-12 18:49 59.95639 -30.69735 37876 ft 439 kts 264°
2026-04-12 18:49 59.94847 -30.81813 37872 ft 439 kts 264°
2026-04-12 18:50 59.94045 -30.93868 37867 ft 438 kts 264°
2026-04-12 18:50 59.93233 -31.05908 37883 ft 438 kts 264°
2026-04-12 18:51 59.92411 -31.17924 37882 ft 438 kts 264°
2026-04-12 18:51 59.91579 -31.29922 37876 ft 436 kts 264°
2026-04-12 18:52 59.90743 -31.41805 37894 ft 436 kts 264°
2026-04-12 18:52 59.89892 -31.53745 37899 ft 435 kts 264°
2026-04-12 18:53 59.89032 -31.65668 37899 ft 435 kts 263°
2026-04-12 18:53 59.88162 -31.77567 37917 ft 435 kts 263°
2026-04-12 18:54 59.87279 -31.89487 37906 ft 435 kts 263°
2026-04-12 18:54 59.86387 -32.01383 37900 ft 435 kts 263°
2026-04-12 18:55 59.85488 -32.13205 37912 ft 435 kts 263°
2026-04-12 18:55 59.84575 -32.25088 37918 ft 435 kts 263°
2026-04-12 18:56 59.83650 -32.36970 37913 ft 435 kts 263°
2026-04-12 18:56 59.82714 -32.48850 37920 ft 435 kts 263°
2026-04-12 18:57 59.81767 -32.60730 37904 ft 435 kts 262°
2026-04-12 18:57 59.80817 -32.72504 37918 ft 434 kts 262°
2026-04-12 18:58 59.79851 -32.84344 37931 ft 434 kts 262°
2026-04-12 18:58 59.78875 -32.96161 37932 ft 434 kts 262°
2026-04-12 18:59 59.77889 -33.07974 37938 ft 433 kts 262°
2026-04-12 18:59 59.76894 -33.19763 37938 ft 433 kts 262°
2026-04-12 19:00 59.75887 -33.31548 37925 ft 433 kts 262°
2026-04-12 19:00 59.74880 -33.43222 37941 ft 432 kts 262°
2026-04-12 19:01 59.73855 -33.54966 37952 ft 432 kts 261°
2026-04-12 19:01 59.72819 -33.66699 37946 ft 432 kts 261°
2026-04-12 19:02 59.71773 -33.78430 37948 ft 432 kts 261°
2026-04-12 19:02 59.70717 -33.90156 37951 ft 432 kts 261°
2026-04-12 19:03 59.69649 -34.01876 37938 ft 432 kts 261°
2026-04-12 19:03 59.68582 -34.13474 37954 ft 431 kts 261°
2026-04-12 19:04 59.67498 -34.25136 37959 ft 431 kts 261°
2026-04-12 19:04 59.66404 -34.36790 37959 ft 431 kts 261°
2026-04-12 19:05 59.65301 -34.48419 37964 ft 430 kts 260°
2026-04-12 19:05 59.64187 -34.60042 37965 ft 430 kts 260°
2026-04-12 19:06 59.63064 -34.71658 37957 ft 430 kts 260°
2026-04-12 19:06 59.61930 -34.83259 37963 ft 430 kts 260°
2026-04-12 19:07 59.60796 -34.94762 37962 ft 429 kts 260°
2026-04-12 19:07 59.59644 -35.06329 37962 ft 429 kts 260°
2026-04-12 19:08 59.58481 -35.17894 37986 ft 430 kts 259°
2026-04-12 19:08 59.57307 -35.29463 37979 ft 430 kts 259°
2026-04-12 19:09 59.56121 -35.41039 37974 ft 431 kts 259°
2026-04-12 19:09 59.54933 -35.52536 37973 ft 431 kts 259°
2026-04-12 19:10 59.53725 -35.64106 37967 ft 431 kts 259°
2026-04-12 19:10 59.52508 -35.75670 37971 ft 431 kts 259°
2026-04-12 19:11 59.51279 -35.87229 37975 ft 431 kts 259°
2026-04-12 19:11 59.50040 -35.98785 37972 ft 432 kts 259°
2026-04-12 19:12 59.48790 -36.10341 37970 ft 431 kts 258°
2026-04-12 19:12 59.47533 -36.21856 37974 ft 430 kts 258°
2026-04-12 19:13 59.46266 -36.33361 37975 ft 430 kts 258°
2026-04-12 19:13 59.45000 -36.44760 37974 ft 430 kts 258°
2026-04-12 19:14 59.43717 -36.56219 37983 ft 429 kts 258°
2026-04-12 19:14 59.42423 -36.67672 37976 ft 429 kts 258°
2026-04-12 19:15 59.41121 -36.79094 37973 ft 428 kts 257°
2026-04-12 19:15 59.39812 -36.90491 37973 ft 427 kts 257°
2026-04-12 19:16 59.38498 -37.01834 37975 ft 426 kts 257°
2026-04-12 19:16 59.37184 -37.13082 37976 ft 426 kts 257°
2026-04-12 19:17 59.35852 -37.24390 37984 ft 425 kts 257°
2026-04-12 19:17 59.34512 -37.35679 37980 ft 425 kts 257°
2026-04-12 19:18 59.33163 -37.46956 37976 ft 425 kts 256°
2026-04-12 19:18 59.31803 -37.58221 37976 ft 425 kts 256°
2026-04-12 19:19 59.30444 -37.69399 37969 ft 425 kts 256°
2026-04-12 19:19 59.29064 -37.80660 37970 ft 425 kts 256°
2026-04-12 19:20 59.27674 -37.91909 37972 ft 426 kts 256°
2026-04-12 19:20 59.26273 -38.03161 37974 ft 426 kts 256°
2026-04-12 19:21 59.24862 -38.14407 37969 ft 426 kts 255°
2026-04-12 19:21 59.23442 -38.25649 37975 ft 427 kts 255°
2026-04-12 19:22 59.22009 -38.36897 37976 ft 427 kts 255°
2026-04-12 19:22 59.20565 -38.48147 37982 ft 428 kts 255°
2026-04-12 19:23 59.19118 -38.59341 37979 ft 429 kts 255°
2026-04-12 19:23 59.17648 -38.70618 37973 ft 429 kts 255°
2026-04-12 19:24 59.16169 -38.81886 37963 ft 429 kts 255°
2026-04-12 19:24 59.14677 -38.93162 37971 ft 430 kts 255°
2026-04-12 19:25 59.13177 -39.04422 37965 ft 430 kts 255°
2026-04-12 19:25 59.11664 -39.15694 37970 ft 430 kts 254°
2026-04-12 19:26 59.10152 -39.26883 37967 ft 430 kts 254°
2026-04-12 19:26 59.08619 -39.38140 37967 ft 431 kts 254°
2026-04-12 19:27 59.07076 -39.49393 37970 ft 431 kts 254°
2026-04-12 19:27 59.05521 -39.60644 37962 ft 431 kts 254°
2026-04-12 19:28 59.03956 -39.71897 37964 ft 432 kts 254°
2026-04-12 19:28 59.02380 -39.83149 37964 ft 432 kts 253°
2026-04-12 19:29 59.00796 -39.94392 37963 ft 432 kts 253°
2026-04-12 19:29 58.99177 -40.05612 37956 ft 432 kts 253°
2026-04-12 19:30 58.97478 -40.16711 37972 ft 433 kts 252°
2026-04-12 19:30 58.95746 -40.27880 37964 ft 433 kts 252°
2026-04-12 19:31 58.94013 -40.39043 37961 ft 433 kts 252°
2026-04-12 19:31 58.92274 -40.50211 37962 ft 433 kts 252°
2026-04-12 19:32 58.90529 -40.61365 37961 ft 433 kts 252°
2026-04-12 19:32 58.88773 -40.72516 37968 ft 433 kts 252°
2026-04-12 19:33 58.87019 -40.83577 37961 ft 433 kts 252°
2026-04-12 19:33 58.85244 -40.94703 37959 ft 433 kts 252°
2026-04-12 19:34 58.83459 -41.05819 37960 ft 433 kts 251°
2026-04-12 19:34 58.81665 -41.16923 37961 ft 433 kts 251°
2026-04-12 19:35 58.79861 -41.28015 37962 ft 433 kts 251°
2026-04-12 19:35 58.78059 -41.39022 37962 ft 433 kts 251°
2026-04-12 19:36 58.76238 -41.50085 37962 ft 433 kts 251°
2026-04-12 19:36 58.74405 -41.61142 37959 ft 433 kts 251°
2026-04-12 19:37 58.72566 -41.72173 37960 ft 433 kts 251°
2026-04-12 19:37 58.70714 -41.83214 37965 ft 434 kts 251°
2026-04-12 19:38 58.68864 -41.94168 37955 ft 434 kts 251°
2026-04-12 19:38 58.66993 -42.05184 37955 ft 434 kts 251°
2026-04-12 19:39 58.65113 -42.16191 37957 ft 434 kts 250°
2026-04-12 19:39 58.63544 -42.25321 37974 ft 433 kts 250°
2026-04-12 19:40 58.61647 -42.36301 37965 ft 433 kts 250°
2026-04-12 19:40 58.59741 -42.47265 37960 ft 433 kts 250°
2026-04-12 19:41 58.57513 -42.59999 37956 ft 433 kts 250°
2026-04-12 19:41 58.55900 -42.69170 37952 ft 433 kts 250°
2026-04-12 19:42 58.53980 -42.80019 37953 ft 433 kts 250°
2026-04-12 19:42 58.52039 -42.90927 37962 ft 433 kts 250°
2026-04-12 19:43 58.49109 -43.07267 37960 ft 433 kts 250°
2026-04-12 19:43 58.47146 -43.18135 37963 ft 433 kts 250°
2026-04-12 19:44 58.45175 -43.28987 37956 ft 433 kts 249°
2026-04-12 19:44 58.43195 -43.39830 37969 ft 433 kts 249°
2026-04-12 19:45 58.41215 -43.50602 37962 ft 433 kts 249°
2026-04-12 19:45 58.39214 -43.61432 37955 ft 433 kts 249°
2026-04-12 19:46 58.37203 -43.72254 37957 ft 433 kts 249°
2026-04-12 19:46 58.35185 -43.83049 37954 ft 433 kts 249°
2026-04-12 19:47 58.33158 -43.93836 37956 ft 433 kts 248°
2026-04-12 19:47 58.31120 -44.04618 37951 ft 433 kts 248°
2026-04-12 19:48 58.29088 -44.15309 37951 ft 433 kts 248°
2026-04-12 19:48 58.27033 -44.26058 37949 ft 433 kts 248°
2026-04-12 19:49 58.24971 -44.36790 37944 ft 433 kts 248°
2026-04-12 19:49 58.22898 -44.47516 37945 ft 433 kts 248°
2026-04-12 19:50 58.20818 -44.58222 37943 ft 433 kts 248°
2026-04-12 19:50 58.18740 -44.68856 37935 ft 433 kts 248°
2026-04-12 19:51 58.16640 -44.79549 37937 ft 433 kts 248°
2026-04-12 19:51 58.14530 -44.90230 37937 ft 433 kts 248°
2026-04-12 19:52 58.12410 -45.00905 37944 ft 434 kts 247°
2026-04-12 19:52 58.10275 -45.11600 37944 ft 434 kts 247°
2026-04-12 19:53 58.08146 -45.22208 37936 ft 435 kts 247°
2026-04-12 19:53 58.05992 -45.32878 37931 ft 435 kts 247°
2026-04-12 19:54 58.03830 -45.43536 37934 ft 435 kts 247°
2026-04-12 19:54 58.01658 -45.54188 37926 ft 435 kts 247°
2026-04-12 19:55 57.99475 -45.64834 37935 ft 435 kts 246°
2026-04-12 19:55 57.97282 -45.75471 37926 ft 435 kts 246°
2026-04-12 19:56 57.95097 -45.86015 37927 ft 435 kts 246°
2026-04-12 19:56 57.92886 -45.96630 37926 ft 435 kts 246°
2026-04-12 19:57 57.90668 -46.07223 37920 ft 435 kts 246°
2026-04-12 19:57 57.88440 -46.17807 37926 ft 435 kts 246°
2026-04-12 19:58 57.86205 -46.28373 37924 ft 435 kts 246°
2026-04-12 19:58 57.83975 -46.38856 37917 ft 435 kts 246°
2026-04-12 19:59 57.81724 -46.49390 37953 ft 435 kts 246°
2026-04-12 19:59 57.79462 -46.59917 37920 ft 435 kts 245°
2026-04-12 20:00 57.77190 -46.70436 37914 ft 435 kts 245°
2026-04-12 20:00 57.74912 -46.80931 37931 ft 435 kts 245°
2026-04-12 20:01 57.72626 -46.91411 37922 ft 435 kts 245°
2026-04-12 20:01 57.70344 -47.01818 37916 ft 435 kts 245°
2026-04-12 20:02 57.68041 -47.12268 37915 ft 435 kts 245°
2026-04-12 20:02 57.65729 -47.22711 37918 ft 435 kts 245°
2026-04-12 20:03 57.63407 -47.33141 37915 ft 435 kts 245°
2026-04-12 20:03 57.61075 -47.43569 37927 ft 436 kts 245°
2026-04-12 20:04 57.58748 -47.53923 37933 ft 436 kts 245°
2026-04-12 20:04 57.56395 -47.64339 37932 ft 437 kts 244°
2026-04-12 20:05 57.54026 -47.74772 37930 ft 437 kts 244°
2026-04-12 20:05 57.51647 -47.85202 37935 ft 438 kts 244°
2026-04-12 20:06 57.49258 -47.95624 37938 ft 438 kts 244°
2026-04-12 20:06 57.46872 -48.05978 37943 ft 439 kts 244°
2026-04-12 20:07 57.44460 -48.16398 37954 ft 439 kts 244°
2026-04-12 20:07 57.42037 -48.26816 37946 ft 440 kts 244°
2026-04-12 20:08 57.39605 -48.37220 37955 ft 440 kts 244°
2026-04-12 20:08 57.37165 -48.47609 37955 ft 440 kts 244°
2026-04-12 20:09 57.34732 -48.57917 37982 ft 440 kts 244°
2026-04-12 20:09 57.32275 -48.68275 37969 ft 440 kts 244°
2026-04-12 20:10 57.29808 -48.78628 37970 ft 440 kts 244°
2026-04-12 20:10 57.27335 -48.88956 37968 ft 439 kts 244°
2026-04-12 20:11 57.24854 -48.99267 37975 ft 439 kts 244°
2026-04-12 20:11 57.22367 -49.09558 37975 ft 439 kts 243°
2026-04-12 20:12 57.19872 -49.19831 37989 ft 439 kts 243°
2026-04-12 20:12 57.17385 -49.30024 37985 ft 439 kts 243°
2026-04-12 20:13 57.14867 -49.40294 38007 ft 441 kts 243°
2026-04-12 20:14 57.11065 -49.55715 38038 ft 442 kts 243°
2026-04-12 20:14 57.09791 -49.60854 38290 ft 442 kts 243°
2026-04-12 20:14 57.08518 -49.65983 38585 ft 440 kts 243°
2026-04-12 20:14 57.07247 -49.71092 38812 ft 440 kts 243°
2026-04-12 20:15 57.05974 -49.76196 38915 ft 441 kts 243°
2026-04-12 20:15 57.03427 -49.86372 38993 ft 441 kts 243°
2026-04-12 20:16 57.00861 -49.96585 39002 ft 440 kts 243°
2026-04-12 20:16 56.98323 -50.06806 39006 ft 441 kts 244°
2026-04-12 20:17 56.95852 -50.17091 39006 ft 441 kts 244°
2026-04-12 20:17 56.93382 -50.27361 39011 ft 441 kts 244°
2026-04-12 20:18 56.90909 -50.37559 39017 ft 441 kts 244°
2026-04-12 20:18 56.88407 -50.47801 39019 ft 441 kts 243°
2026-04-12 20:19 56.85895 -50.58026 39021 ft 441 kts 243°
2026-04-12 20:19 56.83374 -50.68241 39022 ft 441 kts 243°
2026-04-12 20:20 56.80845 -50.78443 39029 ft 441 kts 243°
2026-04-12 20:20 56.78322 -50.88573 39040 ft 442 kts 243°
2026-04-12 20:21 56.75772 -50.98763 39034 ft 442 kts 243°
2026-04-12 20:21 56.73211 -51.08953 39032 ft 442 kts 243°
2026-04-12 20:22 56.70643 -51.19120 39033 ft 442 kts 243°
2026-04-12 20:22 56.68065 -51.29283 39032 ft 442 kts 243°
2026-04-12 20:23 56.65481 -51.39425 39043 ft 442 kts 243°
2026-04-12 20:23 56.62904 -51.49490 39044 ft 442 kts 243°
2026-04-12 20:24 56.60303 -51.59603 39041 ft 442 kts 243°
2026-04-12 20:24 56.57692 -51.69710 39047 ft 442 kts 243°
2026-04-12 20:25 56.55072 -51.79806 39046 ft 442 kts 242°
2026-04-12 20:25 56.52461 -51.89823 39048 ft 442 kts 242°
2026-04-12 20:26 56.49824 -51.99894 39051 ft 443 kts 242°
2026-04-12 20:26 56.47179 -52.09950 39052 ft 443 kts 242°
2026-04-12 20:27 56.44526 -52.19995 39052 ft 443 kts 242°
2026-04-12 20:27 56.41864 -52.30027 39052 ft 443 kts 242°
2026-04-12 20:28 56.39193 -52.40046 39057 ft 443 kts 242°
2026-04-12 20:28 56.36531 -52.49989 39065 ft 443 kts 242°
2026-04-12 20:29 56.33843 -52.59988 39066 ft 443 kts 242°
2026-04-12 20:29 56.31145 -52.69976 39063 ft 443 kts 242°
2026-04-12 20:30 56.28438 -52.79953 39060 ft 444 kts 242°
2026-04-12 20:30 56.25722 -52.89923 39063 ft 443 kts 242°
2026-04-12 20:31 56.23000 -52.99873 39066 ft 444 kts 242°
2026-04-12 20:31 56.20286 -53.09747 39065 ft 444 kts 242°
2026-04-12 20:32 56.17543 -53.19682 39060 ft 444 kts 242°
2026-04-12 20:32 56.14792 -53.29605 39064 ft 444 kts 242°
2026-04-12 20:33 56.12035 -53.39509 39066 ft 444 kts 242°
2026-04-12 20:33 56.09266 -53.49410 39085 ft 445 kts 242°
2026-04-12 20:34 56.06485 -53.59314 39080 ft 445 kts 242°
2026-04-12 20:34 56.03716 -53.69130 39069 ft 445 kts 242°
2026-04-12 20:35 56.00918 -53.79010 39074 ft 445 kts 242°
2026-04-12 20:35 55.98114 -53.88866 39072 ft 445 kts 242°
2026-04-12 20:36 55.95301 -53.98716 39078 ft 445 kts 241°
2026-04-12 20:36 55.92481 -54.08545 39077 ft 445 kts 241°
2026-04-12 20:37 55.89655 -54.18356 39080 ft 445 kts 241°
2026-04-12 20:37 55.86836 -54.28100 39076 ft 445 kts 241°
2026-04-12 20:38 55.83992 -54.37891 39084 ft 446 kts 241°
2026-04-12 20:38 55.81136 -54.47680 39082 ft 446 kts 241°
2026-04-12 20:39 55.78273 -54.57452 39083 ft 446 kts 241°
2026-04-12 20:39 55.75400 -54.67218 39088 ft 446 kts 241°
2026-04-12 20:40 55.72519 -54.76971 39106 ft 447 kts 241°
2026-04-12 20:40 55.69642 -54.86669 39091 ft 447 kts 241°
2026-04-12 20:41 55.66739 -54.96414 39090 ft 447 kts 241°
2026-04-12 20:41 55.63828 -55.06149 39097 ft 448 kts 241°
2026-04-12 20:42 55.60905 -55.15880 39099 ft 448 kts 241°
2026-04-12 20:42 55.57974 -55.25601 39098 ft 448 kts 241°
2026-04-12 20:43 55.55033 -55.35312 39099 ft 448 kts 241°
2026-04-12 20:43 55.52085 -55.45007 39101 ft 448 kts 241°
2026-04-12 20:44 55.49146 -55.54635 39099 ft 448 kts 241°
2026-04-12 20:44 55.46182 -55.64305 39118 ft 449 kts 241°
2026-04-12 20:45 55.43209 -55.73964 39115 ft 449 kts 241°
2026-04-12 20:45 55.40226 -55.83615 39108 ft 449 kts 241°
2026-04-12 20:46 55.37237 -55.93248 39106 ft 449 kts 240°
2026-04-12 20:46 55.34260 -56.02801 39115 ft 449 kts 241°
2026-04-12 20:47 55.31255 -56.12410 39114 ft 449 kts 241°
2026-04-12 20:47 55.28242 -56.22005 39114 ft 449 kts 241°
2026-04-12 20:48 55.25223 -56.31579 39115 ft 448 kts 241°
2026-04-12 20:48 55.22197 -56.41139 39118 ft 448 kts 240°
2026-04-12 20:49 55.19166 -56.50675 39125 ft 448 kts 240°
2026-04-12 20:49 55.16148 -56.60132 39123 ft 448 kts 241°
2026-04-12 20:50 55.13103 -56.69640 39126 ft 448 kts 241°
2026-04-12 20:50 55.10050 -56.79135 39128 ft 448 kts 240°
2026-04-12 20:51 55.06991 -56.88616 39133 ft 448 kts 240°
2026-04-12 20:51 55.03830 -56.97994 39142 ft 448 kts 236°
2026-04-12 20:52 54.99856 -57.06430 39164 ft 455 kts 227°
2026-04-12 20:52 54.95422 -57.14377 39313 ft 459 kts 227°
2026-04-12 20:52 54.93197 -57.18358 39491 ft 459 kts 227°
2026-04-12 20:53 54.91003 -57.22288 39661 ft 458 kts 227°
2026-04-12 20:53 54.88791 -57.26257 39832 ft 458 kts 227°
2026-04-12 20:53 54.86575 -57.30237 39980 ft 458 kts 227°
2026-04-12 20:54 54.82146 -57.38187 40127 ft 459 kts 227°
2026-04-12 20:54 54.77694 -57.46160 40151 ft 461 kts 227°
2026-04-12 20:55 54.73233 -57.54117 40161 ft 461 kts 227°
2026-04-12 20:55 54.68767 -57.62057 40163 ft 461 kts 227°
2026-04-12 20:56 54.64325 -57.69926 40162 ft 460 kts 227°
2026-04-12 20:56 54.59852 -57.77823 40170 ft 460 kts 227°
2026-04-12 20:57 54.55373 -57.85707 40175 ft 460 kts 227°
2026-04-12 20:57 54.50891 -57.93568 40185 ft 460 kts 227°
2026-04-12 20:58 54.46403 -58.01415 40183 ft 460 kts 227°
2026-04-12 20:58 54.41907 -58.09249 40181 ft 460 kts 227°
2026-04-12 20:59 54.37439 -58.17008 40191 ft 460 kts 227°
2026-04-12 20:59 54.32935 -58.24804 40190 ft 460 kts 227°
2026-04-12 21:00 54.28427 -58.32582 40192 ft 460 kts 227°
2026-04-12 21:00 54.23916 -58.40338 40184 ft 460 kts 227°
2026-04-12 21:01 54.19394 -58.48089 40199 ft 460 kts 227°
2026-04-12 21:01 54.14900 -58.55766 40198 ft 460 kts 227°
2026-04-12 21:02 54.10367 -58.63484 40197 ft 461 kts 227°
2026-04-12 21:02 54.05828 -58.71188 40204 ft 461 kts 227°
2026-04-12 21:03 54.01280 -58.78880 40194 ft 461 kts 227°
2026-04-12 21:03 53.96729 -58.86554 40207 ft 461 kts 227°
2026-04-12 21:04 53.92167 -58.94221 40213 ft 461 kts 227°
2026-04-12 21:04 53.87629 -59.01823 40208 ft 462 kts 227°
2026-04-12 21:05 53.83059 -59.09453 40202 ft 462 kts 228°
2026-04-12 21:05 53.78476 -59.17082 40215 ft 462 kts 227°
2026-04-12 21:06 53.73891 -59.24688 40210 ft 462 kts 227°
2026-04-12 21:06 53.69296 -59.32288 40213 ft 463 kts 227°
2026-04-12 21:07 53.64721 -59.39828 40203 ft 463 kts 228°
2026-04-12 21:07 53.60104 -59.47413 40211 ft 463 kts 228°
2026-04-12 21:08 53.55489 -59.54972 40213 ft 463 kts 228°
2026-04-12 21:08 53.50861 -59.62528 40208 ft 464 kts 227°
2026-04-12 21:09 53.46231 -59.70061 40212 ft 464 kts 227°
2026-04-12 21:09 53.41594 -59.77581 40198 ft 464 kts 228°
2026-04-12 21:10 53.36982 -59.85040 40217 ft 464 kts 228°
2026-04-12 21:10 53.32330 -59.92537 40202 ft 464 kts 228°
2026-04-12 21:11 53.27671 -60.00022 40197 ft 464 kts 228°
2026-04-12 21:11 53.23012 -60.07485 40198 ft 464 kts 228°
2026-04-12 21:12 53.18343 -60.14937 40199 ft 465 kts 228°
2026-04-12 21:12 53.14454 -60.21128 40194 ft 465 kts 228°
2026-04-12 21:13 53.09016 -60.29755 40196 ft 465 kts 228°
2026-04-12 21:13 53.05091 -60.35965 40176 ft 465 kts 228°
2026-04-12 21:14 53.00434 -60.43310 40184 ft 465 kts 228°
2026-04-12 21:14 52.95739 -60.50692 40186 ft 465 kts 228°
2026-04-12 21:15 52.91035 -60.58065 40185 ft 465 kts 228°
2026-04-12 21:15 52.86330 -60.65416 40156 ft 465 kts 229°
2026-04-12 21:16 52.81618 -60.72756 40170 ft 465 kts 229°
2026-04-12 21:16 52.76900 -60.80080 40176 ft 466 kts 228°
2026-04-12 21:17 52.72204 -60.87349 40183 ft 466 kts 228°
2026-04-12 21:17 52.67468 -60.94657 40187 ft 467 kts 228°
2026-04-12 21:18 52.62725 -61.01951 40166 ft 467 kts 229°
2026-04-12 21:18 52.57977 -61.09232 40185 ft 467 kts 229°
2026-04-12 21:19 52.53217 -61.16510 40186 ft 467 kts 228°
2026-04-12 21:19 52.48484 -61.23722 40170 ft 468 kts 228°
2026-04-12 21:20 52.43716 -61.30967 40187 ft 467 kts 228°
2026-04-12 21:20 52.38939 -61.38201 40191 ft 467 kts 228°
2026-04-12 21:21 52.34163 -61.45410 40195 ft 467 kts 228°
2026-04-12 21:21 52.29383 -61.52607 40180 ft 467 kts 228°
2026-04-12 21:22 52.24597 -61.59789 40192 ft 466 kts 228°
2026-04-12 21:22 52.19813 -61.66947 40189 ft 467 kts 228°
2026-04-12 21:23 52.15053 -61.74047 40194 ft 467 kts 228°
2026-04-12 21:23 52.10256 -61.81181 40196 ft 467 kts 228°
2026-04-12 21:24 52.05451 -61.88300 40190 ft 467 kts 229°
2026-04-12 21:24 52.00646 -61.95402 40196 ft 467 kts 229°
2026-04-12 21:25 51.95834 -62.02494 40201 ft 468 kts 229°
2026-04-12 21:25 51.91048 -62.09526 40199 ft 468 kts 228°
2026-04-12 21:26 51.86220 -62.16594 40192 ft 468 kts 229°
2026-04-12 21:26 51.78972 -62.27169 40207 ft 468 kts 229°
2026-04-12 21:27 51.74126 -62.34217 40198 ft 469 kts 229°
2026-04-12 21:27 51.69268 -62.41257 40159 ft 470 kts 229°
2026-04-12 21:28 51.65300 -62.46989 40199 ft 469 kts 229°
2026-04-12 21:28 51.63495 -62.49569 40255 ft 469 kts 228°
2026-04-12 21:29 51.62154 -62.51447 40154 ft 473 kts 227°
2026-04-12 21:29 51.61091 -62.52863 40029 ft 476 kts 227°
2026-04-12 21:29 51.59571 -62.54946 40047 ft 473 kts 228°
2026-04-12 21:30 51.56932 -62.58728 40085 ft 471 kts 229°
2026-04-12 21:30 51.54888 -62.61727 40101 ft 470 kts 230°
2026-04-12 21:31 51.53689 -62.63496 40189 ft 468 kts 230°
2026-04-12 21:31 51.52510 -62.65275 40268 ft 465 kts 231°
2026-04-12 21:32 51.51365 -62.67085 40340 ft 461 kts 233°
2026-04-12 21:32 51.50057 -62.69254 40312 ft 462 kts 232°
2026-04-12 21:33 51.48382 -62.71865 40217 ft 468 kts 229°
2026-04-12 21:33 51.46744 -62.74194 40187 ft 468 kts 230°
2026-04-12 21:34 51.45018 -62.76616 40268 ft 467 kts 228°
2026-04-12 21:34 51.43783 -62.78303 40269 ft 468 kts 228°
2026-04-12 21:35 51.41783 -62.81143 40217 ft 469 kts 229°
2026-04-12 21:35 51.40638 -62.82764 40194 ft 469 kts 229°
2026-04-12 21:36 51.37703 -62.86960 40192 ft 470 kts 228°
2026-04-12 21:36 51.36180 -62.89047 40264 ft 468 kts 228°
2026-04-12 21:37 51.34857 -62.90839 40313 ft 468 kts 227°
2026-04-12 21:37 51.33354 -62.92863 40354 ft 468 kts 227°
2026-04-12 21:38 51.31695 -62.95122 40325 ft 468 kts 229°
2026-04-12 21:38 51.29524 -62.98204 40216 ft 469 kts 229°
2026-04-12 21:39 51.27047 -63.01678 40203 ft 471 kts 229°
2026-04-12 21:39 51.25353 -63.04038 40162 ft 472 kts 229°
2026-04-12 21:40 51.22138 -63.08529 40147 ft 472 kts 229°
2026-04-12 21:40 51.18955 -63.12964 40180 ft 471 kts 229°
2026-04-12 21:41 51.15978 -63.17117 40124 ft 472 kts 229°
2026-04-12 21:41 51.13980 -63.19906 40161 ft 471 kts 229°
2026-04-12 21:42 51.11685 -63.23108 40090 ft 473 kts 229°
2026-04-12 21:42 51.09208 -63.26563 40059 ft 472 kts 229°
2026-04-12 21:43 51.07569 -63.28845 40105 ft 471 kts 229°
2026-04-12 21:43 51.06090 -63.30906 40002 ft 474 kts 229°
2026-04-12 21:44 51.03732 -63.34200 39974 ft 473 kts 229°
2026-04-12 21:44 51.01655 -63.37091 40050 ft 471 kts 229°
2026-04-12 21:45 50.99967 -63.39435 40104 ft 470 kts 229°
2026-04-12 21:45 50.98654 -63.41251 40124 ft 470 kts 229°
2026-04-12 21:46 50.97407 -63.42932 40097 ft 473 kts 227°
2026-04-12 21:46 50.95269 -63.45715 40033 ft 473 kts 228°
2026-04-12 21:47 50.94178 -63.47158 40142 ft 470 kts 229°
2026-04-12 21:47 50.91958 -63.50170 40188 ft 467 kts 230°
2026-04-12 21:47 50.89807 -63.53191 40249 ft 465 kts 230°
2026-04-12 21:48 50.87432 -63.56560 40329 ft 465 kts 230°
2026-04-12 21:48 50.84914 -63.60120 40250 ft 468 kts 230°
2026-04-12 21:49 50.82984 -63.62830 40240 ft 469 kts 230°
2026-04-12 21:49 50.80602 -63.66136 40278 ft 469 kts 230°
2026-04-12 21:50 50.78682 -63.68788 40215 ft 472 kts 230°
2026-04-12 21:50 50.76509 -63.71781 40128 ft 474 kts 229°
2026-04-12 21:51 50.74897 -63.73994 40356 ft 467 kts 230°
2026-04-12 21:51 50.73567 -63.75817 40540 ft 465 kts 229°
2026-04-12 21:51 50.72819 -63.76843 40379 ft 470 kts 230°
2026-04-12 21:52 50.71145 -63.79148 39893 ft 479 kts 230°
2026-04-12 21:52 50.69099 -63.81930 40117 ft 472 kts 229°
2026-04-12 21:52 50.66328 -63.85676 40119 ft 471 kts 229°
2026-04-12 21:53 50.63960 -63.88874 40176 ft 469 kts 229°
2026-04-12 21:53 50.62281 -63.91138 40228 ft 468 kts 229°
2026-04-12 21:54 50.59049 -63.95503 40247 ft 467 kts 229°
2026-04-12 21:54 50.57167 -63.98050 40232 ft 467 kts 229°
2026-04-12 21:55 50.54343 -64.01874 40282 ft 465 kts 229°
2026-04-12 21:55 50.52295 -64.04640 40305 ft 466 kts 229°
2026-04-12 21:56 50.50634 -64.06884 40346 ft 465 kts 229°
2026-04-12 21:56 50.48623 -64.09592 40371 ft 465 kts 229°
2026-04-12 21:57 50.46767 -64.12090 40220 ft 469 kts 229°
2026-04-12 21:57 50.43486 -64.16503 40235 ft 468 kts 229°
2026-04-12 21:58 50.41183 -64.19591 40164 ft 470 kts 230°
2026-04-12 21:58 50.39388 -64.22059 40165 ft 467 kts 231°
2026-04-12 21:59 50.37270 -64.24945 40244 ft 467 kts 230°
2026-04-12 21:59 50.34941 -64.28041 40264 ft 467 kts 229°
2026-04-12 22:00 50.33345 -64.30149 40234 ft 467 kts 230°
2026-04-12 22:00 50.32106 -64.31789 40181 ft 468 kts 230°
2026-04-12 22:01 50.28749 -64.36244 40116 ft 469 kts 230°
2026-04-12 22:01 50.26665 -64.38993 40357 ft 463 kts 230°
2026-04-12 22:02 50.24133 -64.42342 40215 ft 466 kts 230°
2026-04-12 22:02 50.23322 -64.43414 40393 ft 461 kts 230°
2026-04-12 22:02 50.22754 -64.44161 40514 ft 457 kts 230°
2026-04-12 22:03 50.22187 -64.44898 40685 ft 454 kts 229°
2026-04-12 22:03 50.21611 -64.45626 40838 ft 451 kts 227°
2026-04-12 22:03 50.20861 -64.46537 41024 ft 450 kts 227°
2026-04-12 22:03 50.19086 -64.48721 41081 ft 450 kts 229°
2026-04-12 22:04 50.17135 -64.51270 40866 ft 456 kts 230°
2026-04-12 22:04 50.16209 -64.52515 40809 ft 459 kts 230°
2026-04-12 22:04 50.15254 -64.53805 40640 ft 461 kts 231°
2026-04-12 22:04 50.14220 -64.55213 40541 ft 464 kts 231°
2026-04-12 22:05 50.12437 -64.57627 40364 ft 468 kts 231°
2026-04-12 22:05 50.10955 -64.59623 40441 ft 466 kts 231°
2026-04-12 22:06 50.08382 -64.63069 40611 ft 464 kts 230°
2026-04-12 22:06 50.06646 -64.65391 40462 ft 468 kts 230°
2026-04-12 22:06 50.05500 -64.66916 40469 ft 468 kts 230°
2026-04-12 22:07 50.03585 -64.69452 40538 ft 468 kts 230°
2026-04-12 22:07 50.01033 -64.72810 40429 ft 471 kts 230°
2026-04-12 22:08 49.98694 -64.75879 40352 ft 473 kts 230°
2026-04-12 22:08 49.96707 -64.78477 40231 ft 474 kts 230°
2026-04-12 22:09 49.94193 -64.81756 40275 ft 472 kts 230°
2026-04-12 22:09 49.90818 -64.86148 40288 ft 471 kts 230°
2026-04-12 22:10 49.88076 -64.89718 40286 ft 471 kts 230°
2026-04-12 22:10 49.84742 -64.94048 40317 ft 470 kts 230°
2026-04-12 22:11 49.82056 -64.97529 40316 ft 470 kts 230°
2026-04-12 22:11 49.78895 -65.01621 40298 ft 470 kts 230°
2026-04-12 22:12 49.75520 -65.05984 40277 ft 469 kts 230°
2026-04-12 22:12 49.73268 -65.08887 40295 ft 468 kts 230°
2026-04-12 22:13 49.70653 -65.12259 40158 ft 471 kts 230°
2026-04-12 22:13 49.68327 -65.15253 40277 ft 468 kts 230°
2026-04-12 22:13 49.65861 -65.18424 40300 ft 467 kts 230°
2026-04-12 22:14 49.60865 -65.24840 40308 ft 467 kts 230°
2026-04-12 22:14 49.55862 -65.31242 40306 ft 467 kts 230°
2026-04-12 22:15 49.50864 -65.37620 40316 ft 467 kts 230°
2026-04-12 22:15 49.45858 -65.43990 40316 ft 467 kts 230°
2026-04-12 22:16 49.40844 -65.50352 40318 ft 468 kts 230°
2026-04-12 22:16 49.35829 -65.56697 40313 ft 467 kts 230°
2026-04-12 22:17 49.30844 -65.62988 40320 ft 467 kts 230°
2026-04-12 22:17 49.25817 -65.69315 40324 ft 468 kts 230°
2026-04-12 22:18 49.20782 -65.75635 40278 ft 468 kts 230°
2026-04-12 22:18 49.15757 -65.81924 40338 ft 467 kts 230°
2026-04-12 22:19 49.10743 -65.88189 40302 ft 468 kts 230°
2026-04-12 22:19 49.05705 -65.94457 40335 ft 467 kts 230°
2026-04-12 22:20 49.00662 -66.00713 40313 ft 467 kts 230°
2026-04-12 22:20 48.95664 -66.06901 40321 ft 466 kts 230°
2026-04-12 22:21 48.90635 -66.13112 40337 ft 465 kts 230°
2026-04-12 22:21 48.85613 -66.19297 40346 ft 464 kts 230°
2026-04-12 22:22 48.80598 -66.25455 40322 ft 462 kts 230°
2026-04-12 22:22 48.75611 -66.31560 40347 ft 460 kts 230°
2026-04-12 22:23 48.70668 -66.37606 40345 ft 460 kts 230°
2026-04-12 22:23 48.65688 -66.43678 40348 ft 460 kts 230°
2026-04-12 22:24 48.60700 -66.49744 40348 ft 460 kts 230°
2026-04-12 22:24 48.55709 -66.55796 40349 ft 460 kts 230°
2026-04-12 22:25 48.50706 -66.61846 40351 ft 461 kts 230°
2026-04-12 22:25 48.45723 -66.67853 40308 ft 461 kts 230°
2026-04-12 22:26 48.40719 -66.73873 40339 ft 460 kts 230°
2026-04-12 22:26 48.35717 -66.79874 40346 ft 460 kts 230°
2026-04-12 22:27 48.30714 -66.85859 40350 ft 459 kts 230°
2026-04-12 22:27 48.25748 -66.91787 40340 ft 458 kts 230°
2026-04-12 22:28 48.20760 -66.97726 40362 ft 457 kts 230°
2026-04-12 22:28 48.15770 -67.03653 40347 ft 458 kts 230°
2026-04-12 22:29 48.10777 -67.09569 40341 ft 458 kts 230°
2026-04-12 22:29 48.05824 -67.15418 40348 ft 455 kts 230°
2026-04-12 22:30 48.00863 -67.21264 40346 ft 454 kts 230°
2026-04-12 22:30 47.95905 -67.27094 40346 ft 453 kts 230°
2026-04-12 22:31 47.90954 -67.32901 40326 ft 452 kts 230°
2026-04-12 22:31 47.86019 -67.38672 40352 ft 450 kts 230°
2026-04-12 22:32 47.81130 -67.44377 40358 ft 449 kts 230°
2026-04-12 22:32 47.76215 -67.50101 40357 ft 449 kts 230°
2026-04-12 22:33 47.71300 -67.55809 40343 ft 448 kts 230°
2026-04-12 22:33 47.66394 -67.61493 40352 ft 448 kts 230°
2026-04-12 22:34 47.61481 -67.67171 40358 ft 447 kts 230°
2026-04-12 22:34 47.56611 -67.72787 40372 ft 446 kts 230°
2026-04-12 22:35 47.51795 -67.78517 40354 ft 439 kts 233°
2026-04-12 22:35 47.47259 -67.84524 40364 ft 437 kts 233°
2026-04-12 22:36 47.42747 -67.90521 40342 ft 433 kts 233°
2026-04-12 22:36 47.40531 -67.93438 40332 ft 421 kts 233°
2026-04-12 22:36 47.38360 -67.96288 40331 ft 416 kts 234°
2026-04-12 22:37 47.34051 -68.01968 40328 ft 416 kts 233°
2026-04-12 22:37 47.29741 -68.07646 40325 ft 420 kts 233°
2026-04-12 22:38 47.25360 -68.13390 40322 ft 423 kts 233°
2026-04-12 22:38 47.20979 -68.19097 40304 ft 417 kts 233°
2026-04-12 22:39 47.16664 -68.24707 40317 ft 412 kts 233°
2026-04-12 22:40 47.10203 -68.33123 40352 ft 421 kts 233°
2026-04-12 22:40 47.05807 -68.38823 40347 ft 421 kts 233°
2026-04-12 22:41 47.01425 -68.44472 40305 ft 418 kts 233°
2026-04-12 22:41 46.97075 -68.50073 40354 ft 416 kts 233°
2026-04-12 22:42 46.92723 -68.55690 40363 ft 424 kts 233°
2026-04-12 22:42 46.88281 -68.61400 40335 ft 425 kts 233°
2026-04-12 22:43 46.83852 -68.67056 40336 ft 421 kts 233°
2026-04-12 22:43 46.79457 -68.72668 40357 ft 419 kts 233°
2026-04-12 22:44 46.75070 -68.78263 40360 ft 419 kts 233°
2026-04-12 22:44 46.70671 -68.83864 40354 ft 421 kts 233°
2026-04-12 22:45 46.66285 -68.89434 40318 ft 422 kts 233°
2026-04-12 22:45 46.61861 -68.95036 40346 ft 422 kts 233°
2026-04-12 22:46 46.57420 -69.00648 40350 ft 423 kts 233°
2026-04-12 22:46 46.52969 -69.06260 40368 ft 424 kts 233°
2026-04-12 22:47 46.48504 -69.11876 40331 ft 425 kts 233°
2026-04-12 22:47 46.44029 -69.17489 40350 ft 425 kts 233°
2026-04-12 22:48 46.39597 -69.23036 40353 ft 424 kts 233°
2026-04-12 22:48 46.35132 -69.28616 40360 ft 424 kts 233°
2026-04-12 22:49 46.30666 -69.34185 40338 ft 423 kts 233°
2026-04-12 22:49 46.26208 -69.39727 40346 ft 422 kts 233°
2026-04-12 22:50 46.21752 -69.45258 40353 ft 422 kts 233°
2026-04-12 22:50 46.18050 -69.49844 40351 ft 422 kts 233°
2026-04-12 22:51 46.12863 -69.56254 40333 ft 422 kts 234°
2026-04-12 22:51 46.09150 -69.60833 40343 ft 422 kts 234°
2026-04-12 22:52 46.04690 -69.66323 40347 ft 423 kts 234°
2026-04-12 22:52 46.00213 -69.71822 40354 ft 423 kts 234°
2026-04-12 22:53 45.95728 -69.77318 40336 ft 424 kts 234°
2026-04-12 22:53 45.91236 -69.82807 40348 ft 424 kts 234°
2026-04-12 22:54 45.86771 -69.88253 40347 ft 424 kts 234°
2026-04-12 22:54 45.82280 -69.93719 40330 ft 423 kts 234°
2026-04-12 22:55 45.77788 -69.99173 40349 ft 422 kts 234°
2026-04-12 22:55 45.73306 -70.04604 40352 ft 422 kts 234°
2026-04-12 22:56 45.68824 -70.10025 40355 ft 422 kts 234°
2026-04-12 22:56 45.64334 -70.15444 40357 ft 422 kts 234°
2026-04-12 22:57 45.59871 -70.20817 40343 ft 423 kts 234°
2026-04-12 22:57 45.55368 -70.26230 40337 ft 424 kts 233°
2026-04-12 22:58 45.50844 -70.31655 40348 ft 425 kts 233°
2026-04-12 22:58 45.46305 -70.37084 40319 ft 426 kts 233°
2026-04-12 22:59 45.41749 -70.42521 40337 ft 428 kts 233°
2026-04-12 22:59 45.37176 -70.47969 40341 ft 430 kts 233°
2026-04-12 23:00 45.32612 -70.53392 40329 ft 432 kts 233°
2026-04-12 23:00 45.28002 -70.58864 40831 ft 431 kts 226°
2026-04-12 23:00 45.25710 -70.61576 40620 ft 426 kts 226°
2026-04-12 23:01 45.23455 -70.64233 40490 ft 418 kts 226°
2026-04-12 23:01 45.19008 -70.69476 40376 ft 415 kts 226°
2026-04-12 23:02 45.14568 -70.74713 40345 ft 416 kts 226°
2026-04-12 23:02 45.10108 -70.79963 40355 ft 418 kts 226°
2026-04-12 23:03 45.05646 -70.85200 40351 ft 421 kts 226°
2026-04-12 23:03 45.01117 -70.90504 40362 ft 424 kts 226°
2026-04-12 23:04 44.96563 -70.95823 40359 ft 425 kts 226°
2026-04-12 23:04 44.92006 -71.01134 40366 ft 424 kts 226°
2026-04-12 23:05 44.87460 -71.06427 40349 ft 423 kts 226°
2026-04-12 23:05 44.82938 -71.11639 40353 ft 423 kts 225°
2026-04-12 23:06 44.78206 -71.16590 40314 ft 424 kts 223°
2026-04-12 23:06 44.73432 -71.21448 40338 ft 423 kts 223°
2026-04-12 23:07 44.68671 -71.26336 40373 ft 424 kts 224°
2026-04-12 23:07 44.63919 -71.31245 40377 ft 425 kts 224°
2026-04-12 23:08 44.59153 -71.36168 40372 ft 425 kts 224°
2026-04-12 23:08 44.54406 -71.41061 40366 ft 427 kts 224°
2026-04-12 23:09 44.49615 -71.45988 40353 ft 428 kts 224°
2026-04-12 23:09 44.42411 -71.53375 40350 ft 427 kts 224°
2026-04-12 23:10 44.37611 -71.58285 40349 ft 427 kts 224°
2026-04-12 23:10 44.32845 -71.63151 40353 ft 427 kts 224°
2026-04-12 23:11 44.28042 -71.68047 40347 ft 427 kts 224°
2026-04-12 23:11 44.23234 -71.72936 40361 ft 427 kts 224°
2026-04-12 23:12 44.18845 -71.78351 40355 ft 417 kts 234°
2026-04-12 23:12 44.14851 -71.84211 40360 ft 418 kts 233°
2026-04-12 23:13 44.10852 -71.90027 40332 ft 418 kts 233°
2026-04-12 23:13 44.06817 -71.95865 40373 ft 420 kts 233°
2026-04-12 23:14 44.02759 -72.01714 40357 ft 420 kts 233°
2026-04-12 23:14 43.98696 -72.07559 40358 ft 421 kts 233°
2026-04-12 23:15 43.94626 -72.13401 40336 ft 421 kts 233°
2026-04-12 23:15 43.90558 -72.19226 40348 ft 420 kts 233°
2026-04-12 23:16 43.86516 -72.25006 40343 ft 421 kts 233°
2026-04-12 23:16 43.82438 -72.30825 40341 ft 421 kts 233°
2026-04-12 23:17 43.78355 -72.36635 40347 ft 421 kts 233°
2026-04-12 23:17 43.74268 -72.42443 40338 ft 422 kts 233°
2026-04-12 23:18 43.70174 -72.48246 40332 ft 422 kts 233°
2026-04-12 23:18 43.66094 -72.54019 40339 ft 423 kts 233°
2026-04-12 23:19 43.61982 -72.59824 40331 ft 422 kts 233°
2026-04-12 23:19 43.57877 -72.65607 40325 ft 423 kts 233°
2026-04-12 23:20 43.53721 -72.71456 40312 ft 432 kts 233°
2026-04-12 23:20 43.49484 -72.77408 40304 ft 437 kts 233°
2026-04-12 23:21 43.45220 -72.83378 40302 ft 443 kts 233°
2026-04-12 23:21 43.40874 -72.89447 40305 ft 447 kts 233°
2026-04-12 23:22 43.36503 -72.95535 40295 ft 448 kts 233°
2026-04-12 23:22 43.32122 -73.01625 40286 ft 448 kts 233°
2026-04-12 23:23 43.27741 -73.07700 40309 ft 448 kts 233°
2026-04-12 23:23 43.23390 -73.13727 40315 ft 447 kts 233°
2026-04-12 23:24 43.19015 -73.19776 40311 ft 447 kts 233°
2026-04-12 23:24 43.14632 -73.25817 40321 ft 447 kts 233°
2026-04-12 23:25 43.10247 -73.31853 40313 ft 447 kts 233°
2026-04-12 23:25 43.05891 -73.37833 40316 ft 446 kts 233°
2026-04-12 23:26 43.01510 -73.43834 40307 ft 446 kts 233°
2026-04-12 23:26 42.97133 -73.49818 40314 ft 445 kts 233°
2026-04-12 23:27 42.92750 -73.55801 40330 ft 446 kts 233°
2026-04-12 23:27 42.88357 -73.61783 40321 ft 446 kts 233°
2026-04-12 23:28 42.83984 -73.67725 40274 ft 447 kts 233°
2026-04-12 23:28 42.79582 -73.73694 40295 ft 447 kts 233°
2026-04-12 23:29 42.74698 -73.79007 40307 ft 468 kts 213°
2026-04-12 23:29 42.71555 -73.80424 40302 ft 487 kts 198°
2026-04-12 23:29 42.68132 -73.80735 40318 ft 497 kts 188°
2026-04-12 23:30 42.61167 -73.80690 40300 ft 502 kts 187°
2026-04-12 23:30 42.54168 -73.80678 40320 ft 504 kts 188°
2026-04-12 23:31 42.47194 -73.80766 40296 ft 505 kts 188°
2026-04-12 23:31 42.40159 -73.80896 40323 ft 505 kts 188°
2026-04-12 23:32 42.33126 -73.81027 40325 ft 506 kts 188°
2026-04-12 23:32 42.26091 -73.81153 40310 ft 506 kts 188°
2026-04-12 23:33 42.19060 -73.81275 40333 ft 505 kts 188°
2026-04-12 23:33 42.12023 -73.81398 40341 ft 506 kts 188°
2026-04-12 23:34 42.05033 -73.81521 40323 ft 506 kts 188°
2026-04-12 23:34 41.97995 -73.81643 40345 ft 506 kts 188°
2026-04-12 23:35 41.90947 -73.81766 40349 ft 507 kts 188°
2026-04-12 23:35 41.83898 -73.81887 39633 ft 510 kts 187°
2026-04-12 23:36 41.80323 -73.81954 39046 ft 517 kts 187°
2026-04-12 23:36 41.76716 -73.82018 38554 ft 518 kts 188°
2026-04-12 23:36 41.73172 -73.82442 38176 ft 504 kts 201°
2026-04-12 23:36 41.70003 -73.83965 37695 ft 483 kts 215°
2026-04-12 23:37 41.66979 -73.85959 37111 ft 486 kts 215°
2026-04-12 23:37 41.63940 -73.87935 36698 ft 484 kts 214°
2026-04-12 23:37 41.60906 -73.89844 36485 ft 481 kts 213°
2026-04-12 23:37 41.57862 -73.91712 36423 ft 482 kts 213°
2026-04-12 23:38 41.51711 -73.95432 36374 ft 489 kts 213°
2026-04-12 23:38 41.45500 -73.99168 36359 ft 491 kts 213°
2026-04-12 23:39 41.39383 -74.03100 36363 ft 479 kts 222°
2026-04-12 23:39 41.34258 -74.08440 36360 ft 468 kts 229°
2026-04-12 23:40 41.29202 -74.13918 36349 ft 470 kts 227°
2026-04-12 23:40 41.24035 -74.19243 36385 ft 470 kts 226°
2026-04-12 23:41 41.18952 -74.24666 36380 ft 461 kts 235°
2026-04-12 23:41 41.17133 -74.28002 36397 ft 439 kts 248°
2026-04-12 23:41 41.15611 -74.31522 36394 ft 441 kts 249°
2026-04-12 23:42 41.12545 -74.38462 36244 ft 427 kts 247°
2026-04-12 23:43 41.08081 -74.48186 35653 ft 402 kts 246°
2026-04-12 23:43 41.06632 -74.51316 35393 ft 395 kts 246°
2026-04-12 23:43 41.05202 -74.54408 35125 ft 393 kts 246°
2026-04-12 23:43 41.03775 -74.57496 34858 ft 392 kts 246°
2026-04-12 23:44 41.02350 -74.60575 34567 ft 392 kts 246°
2026-04-12 23:44 41.00919 -74.63659 34220 ft 393 kts 245°
2026-04-12 23:44 40.99487 -74.66742 33829 ft 393 kts 245°
2026-04-12 23:44 40.98052 -74.69825 33423 ft 395 kts 245°
2026-04-12 23:45 40.96609 -74.72923 32995 ft 396 kts 245°
2026-04-12 23:45 40.95159 -74.76035 32561 ft 398 kts 245°
2026-04-12 23:45 40.93724 -74.79111 32158 ft 399 kts 245°
2026-04-12 23:45 40.92265 -74.82231 31758 ft 400 kts 245°
2026-04-12 23:46 40.90799 -74.85362 31349 ft 401 kts 245°
2026-04-12 23:46 40.89328 -74.88496 30919 ft 402 kts 245°
2026-04-12 23:46 40.87852 -74.91640 30479 ft 403 kts 244°
2026-04-12 23:46 40.86369 -74.94795 29963 ft 404 kts 244°
2026-04-12 23:47 40.84883 -74.97953 29445 ft 406 kts 244°
2026-04-12 23:47 40.83393 -75.01119 28915 ft 407 kts 244°
2026-04-12 23:47 40.81897 -75.04292 28518 ft 407 kts 244°
2026-04-12 23:47 40.80419 -75.07425 28350 ft 411 kts 244°
2026-04-12 23:48 40.78902 -75.10642 28344 ft 413 kts 244°
2026-04-12 23:48 40.75885 -75.17013 28346 ft 406 kts 244°
2026-04-12 23:49 40.72883 -75.23347 28351 ft 408 kts 244°
2026-04-12 23:49 40.69872 -75.29692 28354 ft 409 kts 244°
2026-04-12 23:50 40.66852 -75.36041 28360 ft 409 kts 244°
2026-04-12 23:50 40.63937 -75.42407 28355 ft 407 kts 246°
2026-04-12 23:51 40.61179 -75.48912 28355 ft 407 kts 246°
2026-04-12 23:51 40.58412 -75.55413 28360 ft 408 kts 246°
2026-04-12 23:52 40.55610 -75.61919 28360 ft 410 kts 246°
2026-04-12 23:52 40.52803 -75.68392 28176 ft 403 kts 246°
2026-04-12 23:52 40.51419 -75.71578 27847 ft 400 kts 246°
2026-04-12 23:53 40.50058 -75.74712 27467 ft 400 kts 245°
2026-04-12 23:53 40.48681 -75.77883 27101 ft 399 kts 245°
2026-04-12 23:53 40.47307 -75.81042 26788 ft 397 kts 245°
2026-04-12 23:53 40.45941 -75.84178 26446 ft 395 kts 245°
2026-04-12 23:54 40.44576 -75.87305 26134 ft 394 kts 244°
2026-04-12 23:54 40.43000 -75.90260 25795 ft 399 kts 233°
2026-04-12 23:54 40.41017 -75.92822 25480 ft 400 kts 228°
2026-04-12 23:54 40.38978 -75.95304 25156 ft 399 kts 228°
2026-04-12 23:55 40.36948 -75.97776 24881 ft 397 kts 228°
2026-04-12 23:55 40.34942 -76.00248 24613 ft 395 kts 229°
2026-04-12 23:55 40.32957 -76.02723 24351 ft 393 kts 229°
2026-04-12 23:55 40.30991 -76.05193 24078 ft 391 kts 229°
2026-04-12 23:56 40.29037 -76.07658 23787 ft 389 kts 229°
2026-04-12 23:56 40.27121 -76.10079 23476 ft 387 kts 229°
2026-04-12 23:56 40.25190 -76.12518 23193 ft 385 kts 229°
2026-04-12 23:56 40.23270 -76.14941 22918 ft 383 kts 229°
2026-04-12 23:57 40.21354 -76.17356 22576 ft 382 kts 229°
2026-04-12 23:57 40.19443 -76.19765 22291 ft 380 kts 229°
2026-04-12 23:57 40.17544 -76.22157 22034 ft 378 kts 229°
2026-04-12 23:57 40.15654 -76.24535 21797 ft 376 kts 229°
2026-04-12 23:58 40.13773 -76.26896 21554 ft 374 kts 229°
2026-04-12 23:58 40.11934 -76.29275 21294 ft 369 kts 233°
2026-04-12 23:58 40.10490 -76.31991 20970 ft 362 kts 244°
2026-04-12 23:58 40.09265 -76.34859 20682 ft 361 kts 244°
2026-04-12 23:59 40.08036 -76.37670 20438 ft 361 kts 243°
2026-04-12 23:59 40.06765 -76.40480 20223 ft 359 kts 243°
2026-04-12 23:59 40.05481 -76.43267 20037 ft 357 kts 242°
2026-04-12 23:59 40.04198 -76.46038 19830 ft 356 kts 242°
2026-04-13 00:00 40.02922 -76.48791 19622 ft 354 kts 242°
2026-04-13 00:00 40.01649 -76.51539 19438 ft 353 kts 242°
2026-04-13 00:00 40.00381 -76.54274 19246 ft 352 kts 242°
2026-04-13 00:00 39.99117 -76.56998 19079 ft 350 kts 242°
2026-04-13 00:01 39.97858 -76.59710 18886 ft 349 kts 242°
2026-04-13 00:01 39.96601 -76.62413 18727 ft 348 kts 242°
2026-04-13 00:01 39.95367 -76.65066 18544 ft 347 kts 242°
2026-04-13 00:01 39.94114 -76.67757 18355 ft 346 kts 242°
2026-04-13 00:02 39.92867 -76.70431 18169 ft 345 kts 242°
2026-04-13 00:02 39.91621 -76.73100 17991 ft 344 kts 242°
2026-04-13 00:02 39.90382 -76.75755 17871 ft 341 kts 242°
2026-04-13 00:02 39.89155 -76.78381 17581 ft 338 kts 242°
2026-04-13 00:03 39.87935 -76.80988 17078 ft 337 kts 241°
2026-04-13 00:03 39.86719 -76.83588 16618 ft 336 kts 241°
2026-04-13 00:03 39.85523 -76.86145 16143 ft 335 kts 241°
2026-04-13 00:03 39.84314 -76.88727 15683 ft 334 kts 241°
2026-04-13 00:04 39.83107 -76.91300 15210 ft 333 kts 241°
2026-04-13 00:04 39.81904 -76.93865 14733 ft 332 kts 241°
2026-04-13 00:04 39.80701 -76.96428 14254 ft 332 kts 241°
2026-04-13 00:04 39.79498 -76.98987 13711 ft 331 kts 241°
2026-04-13 00:05 39.78298 -77.01538 13181 ft 330 kts 240°
2026-04-13 00:05 39.77100 -77.04079 12662 ft 329 kts 240°
2026-04-13 00:05 39.75909 -77.06605 12160 ft 327 kts 240°
2026-04-13 00:05 39.74736 -77.09091 11646 ft 326 kts 240°
2026-04-13 00:06 39.73552 -77.11599 11166 ft 325 kts 240°
2026-04-13 00:06 39.72372 -77.14098 10659 ft 324 kts 240°
2026-04-13 00:06 39.71200 -77.16577 10379 ft 317 kts 240°
2026-04-13 00:06 39.70067 -77.18970 10213 ft 305 kts 240°
2026-04-13 00:07 39.68977 -77.21269 10073 ft 293 kts 240°
2026-04-13 00:07 39.67817 -77.23362 9932 ft 280 kts 230°
2026-04-13 00:07 39.66436 -77.25081 9818 ft 271 kts 225°
2026-04-13 00:07 39.65040 -77.26677 9690 ft 266 kts 225°
2026-04-13 00:08 39.63678 -77.28244 9565 ft 264 kts 225°
2026-04-13 00:08 39.62317 -77.29837 9455 ft 264 kts 226°
2026-04-13 00:08 39.60964 -77.31445 9327 ft 264 kts 226°
2026-04-13 00:08 39.59618 -77.33053 9205 ft 263 kts 226°
2026-04-13 00:09 39.58272 -77.34664 9114 ft 263 kts 226°
2026-04-13 00:09 39.56841 -77.36130 9041 ft 265 kts 217°
2026-04-13 00:09 39.55255 -77.37376 9019 ft 267 kts 214°
2026-04-13 00:09 39.53648 -77.38596 9018 ft 268 kts 214°
2026-04-13 00:10 39.52051 -77.39833 9020 ft 268 kts 215°
2026-04-13 00:10 39.50485 -77.41074 9012 ft 267 kts 215°
2026-04-13 00:10 39.48906 -77.42336 9019 ft 267 kts 216°
2026-04-13 00:10 39.47327 -77.43603 9013 ft 267 kts 216°
2026-04-13 00:11 39.45737 -77.44811 9007 ft 264 kts 207°
2026-04-13 00:11 39.43903 -77.45315 8778 ft 278 kts 186°
2026-04-13 00:11 39.41956 -77.45286 8498 ft 282 kts 185°
2026-04-13 00:11 39.39989 -77.45303 8198 ft 282 kts 186°
2026-04-13 00:12 39.38032 -77.45331 7889 ft 280 kts 186°
2026-04-13 00:12 39.36097 -77.45360 7585 ft 277 kts 186°
2026-04-13 00:12 39.34200 -77.45388 7277 ft 275 kts 186°
2026-04-13 00:12 39.32291 -77.45415 6958 ft 274 kts 186°
2026-04-13 00:13 39.30388 -77.45444 6610 ft 274 kts 186°
2026-04-13 00:13 39.28481 -77.45473 6221 ft 274 kts 186°
2026-04-13 00:13 39.26590 -77.45500 6025 ft 267 kts 186°
2026-04-13 00:13 39.24760 -77.45523 6020 ft 261 kts 186°
2026-04-13 00:14 39.22949 -77.45550 6026 ft 261 kts 186°
2026-04-13 00:14 39.21127 -77.45581 6018 ft 262 kts 186°
2026-04-13 00:14 39.19328 -77.45606 5878 ft 253 kts 186°
2026-04-13 00:14 39.17590 -77.45628 5276 ft 248 kts 186°
2026-04-13 00:15 39.15903 -77.45655 4615 ft 244 kts 186°
2026-04-13 00:15 39.14243 -77.45680 4096 ft 234 kts 185°
2026-04-13 00:15 39.12647 -77.45704 3494 ft 223 kts 184°
2026-04-13 00:15 39.11133 -77.45726 3098 ft 210 kts 183°
2026-04-13 00:16 39.09715 -77.45749 2774 ft 195 kts 182°
2026-04-13 00:16 39.08388 -77.45770 2525 ft 184 kts 182°
2026-04-13 00:16 39.07156 -77.45788 2270 ft 170 kts 182°
2026-04-13 00:16 39.06037 -77.45805 2061 ft 152 kts 180°
2026-04-13 00:17 39.05017 -77.45820 1858 ft 142 kts 180°
2026-04-13 00:17 39.04073 -77.45832 1674 ft 136 kts 180°
2026-04-13 00:17 39.03118 -77.45846 1456 ft 137 kts 179°
2026-04-13 00:17 39.02201 -77.45858 1281 ft 123 kts 178°
2026-04-13 00:18 39.01338 -77.45870 1152 ft 126 kts 176°
2026-04-13 00:18 39.00450 -77.45882 986 ft 130 kts 178°
2026-04-13 00:18 38.99509 -77.45897 769 ft 138 kts 178°
2026-04-13 00:18 38.98556 -77.45911 678 ft 135 kts 177°
2026-04-13 00:19 38.97637 -77.45922 475 ft 131 kts 179°
2026-04-13 00:19 38.96725 -77.45942 314 ft 130 kts 178°
2026-04-13 00:19 38.95904 -77.45949 308 ft 103 kts 181°
2026-04-13 00:19 38.95316 -77.45955 309 ft 57 kts 181°
2026-04-13 00:20 38.95058 -77.45944 307 ft 30 kts 166°
2026-04-13 00:20 38.94882 -77.45829 305 ft 21 kts 149°
2026-04-13 00:20 38.94810 -77.45773 306 ft 9 kts 151°
2026-04-13 00:20 38.94791 -77.45760 307 ft 0 kts 151°
2026-04-13 00:22 38.94761 -77.45744 307 ft 11 kts 160°
2026-04-13 00:22 38.94688 -77.45720 306 ft 7 kts 158°
2026-04-13 00:22 38.94670 -77.45695 308 ft 0 kts 122°
2026-04-13 00:36 38.94668 -77.45689 303 ft 2 kts 117°
2026-04-13 00:37 38.94665 -77.45605 305 ft 9 kts 90°
2026-04-13 00:37 38.94664 -77.45505 305 ft 13 kts 91°
2026-04-13 00:37 38.94664 -77.45389 305 ft 13 kts 90°
2026-04-13 00:38 38.94662 -77.45275 305 ft 13 kts 90°
2026-04-13 00:38 38.94661 -77.45160 305 ft 13 kts 91°
2026-04-13 00:38 38.94660 -77.45044 305 ft 13 kts 90°
2026-04-13 00:38 38.94659 -77.44929 305 ft 13 kts 91°
2026-04-13 00:39 38.94658 -77.44814 305 ft 13 kts 89°
2026-04-13 00:39 38.94657 -77.44699 305 ft 13 kts 91°
2026-04-13 00:39 38.94656 -77.44583 305 ft 13 kts 90°
2026-04-13 00:39 38.94655 -77.44468 308 ft 13 kts 91°
2026-04-13 00:40 38.94653 -77.44352 308 ft 13 kts 90°
2026-04-13 00:40 38.94653 -77.44237 308 ft 13 kts 90°
2026-04-13 00:40 38.94652 -77.44126 308 ft 12 kts 91°
2026-04-13 00:40 38.94647 -77.44065 307 ft 4 kts 122°
2026-04-13 00:41 38.94624 -77.44054 305 ft 4 kts 188°
2026-04-13 00:41 38.94601 -77.44074 309 ft 4 kts 216°
2026-04-13 00:41 38.94590 -77.44084 305 ft 1 kts 216°
2026-04-13 00:41 38.94585 -77.44089 305 ft 1 kts 216°
2026-04-13 00:42 38.94582 -77.44092 307 ft 0 kts 216°